Observation data for Sierra Blanca on 01/13/2021      Previous  Date  Next       Current Mesonet Observations  Soil Data  Daily Summary Page  Observations in Plain Language
KSB1 130600Z 25003KT M00/M09 A303 RMK A01 T10021092  RH  050%=      5-min Rain = 0
KSB1 130601Z 26005KT M00/M09 A303 RMK A01 T10021093  RH  050%=      5-min Rain = 0
KSB1 130602Z 26005KT M00/M09 A303 RMK A01 T10021093  RH  050%=      5-min Rain = 0
KSB1 130603Z 26006KT M00/M09 A303 RMK A01 T10021093  RH  050%=      5-min Rain = 0
KSB1 130604Z 26007KT M00/M09 A303 RMK A01 T10011092  RH  050%=      5-min Rain = 0
KSB1 130605Z 26006KT M00/M09 A303 RMK A01 T10011093  RH  050%=      5-min Rain = 0
KSB1 130606Z 25006KT M00/M09 A303 RMK A01 T10021094  RH  050%=      5-min Rain = 0
KSB1 130607Z 26008KT M00/M09 A303 RMK A01 T10041094  RH  051%=      5-min Rain = 0
KSB1 130608Z 26008KT M01/M09 A3029 RMK A01 T10051093  RH  051%=      5-min Rain = 0
KSB1 130609Z 26009KT M00/M09 A3029 RMK A01 T10041091  RH  052%=      5-min Rain = 0
KSB1 130610Z 27009KT M00/M09 A3029 RMK A01 T10021089  RH  052%=      5-min Rain = 0
KSB1 130611Z 27007KT 00/M09 A3029 RMK A01 T00011088  RH  051%=      5-min Rain = 0
KSB1 130612Z 27007KT 00/M09 A3029 RMK A01 T00021088  RH  051%=      5-min Rain = 0
KSB1 130613Z 27008KT 00/M09 A3029 RMK A01 T00041088  RH  050%=      5-min Rain = 0
KSB1 130614Z 27008KT 01/M09 A3029 RMK A01 T00051087  RH  050%=      5-min Rain = 0
KSB1 130615Z 26009KT 01/M09 A3029 RMK A01 T00071087  RH  049%=      5-min Rain = 0
KSB1 130616Z 27009KT 01/M09 A3029 RMK A01 T00081087  RH  049%=      5-min Rain = 0
KSB1 130617Z 28010KT 01/M09 A3029 RMK A01 T00101087  RH  048%=      5-min Rain = 0
KSB1 130618Z 28010KT 01/M09 A3029 RMK A01 T00111087  RH  048%=      5-min Rain = 0
KSB1 130619Z 28010KT 02/M09 A3029 RMK A01 T00151087  RH  047%=      5-min Rain = 0
KSB1 130620Z 28009KT 02/M09 A3029 RMK A01 T00181086  RH  046%=      5-min Rain = 0
KSB1 130621Z 28009KT 02/M09 A303 RMK A01 T00201086  RH  045%=      5-min Rain = 0
KSB1 130622Z 28009KT 02/M09 A303 RMK A01 T00191088  RH  045%=      5-min Rain = 0
KSB1 130623Z 28009KT 02/M09 A303 RMK A01 T00161089  RH  045%=      5-min Rain = 0
KSB1 130624Z 28008KT 02/M09 A303 RMK A01 T00151089  RH  046%=      5-min Rain = 0
KSB1 130625Z 28008KT 02/M09 A303 RMK A01 T00151088  RH  046%=      5-min Rain = 0
KSB1 130626Z 28008KT 02/M09 A303 RMK A01 T00171087  RH  046%=      5-min Rain = 0
KSB1 130627Z 28008KT 02/M09 A303 RMK A01 T00191087  RH  046%=      5-min Rain = 0
KSB1 130628Z 28008KT 02/M09 A303 RMK A01 T00191088  RH  045%=      5-min Rain = 0
KSB1 130629Z 27007KT 02/M09 A303 RMK A01 T00181088  RH  045%=      5-min Rain = 0
KSB1 130630Z 28007KT 02/M09 A303 RMK A01 T00171089  RH  045%=      5-min Rain = 0
KSB1 130631Z 28007KT 02/M09 A303 RMK A01 T00161089  RH  045%=      5-min Rain = 0
KSB1 130632Z 27007KT 02/M09 A303 RMK A01 T00151089  RH  046%=      5-min Rain = 0
KSB1 130633Z 27007KT 01/M09 A303 RMK A01 T00141089  RH  046%=      5-min Rain = 0
KSB1 130634Z 27007KT 01/M09 A303 RMK A01 T00131090  RH  046%=      5-min Rain = 0
KSB1 130635Z 27007KT 01/M09 A3031 RMK A01 T00121090  RH  046%=      5-min Rain = 0
KSB1 130636Z 27006KT 01/M09 A3031 RMK A01 T00111090  RH  047%=      5-min Rain = 0
KSB1 130637Z 27007KT 01/M09 A3031 RMK A01 T00101090  RH  047%=      5-min Rain = 0
KSB1 130638Z 27007KT 01/M09 A3031 RMK A01 T00111089  RH  047%=      5-min Rain = 0
KSB1 130639Z 27006KT 01/M09 A3031 RMK A01 T00131087  RH  047%=      5-min Rain = 0
KSB1 130640Z 27006KT 02/M09 A3031 RMK A01 T00161087  RH  046%=      5-min Rain = 0
KSB1 130641Z 28006KT 02/M09 A3031 RMK A01 T00171088  RH  046%=      5-min Rain = 0
KSB1 130642Z 27006KT 02/M09 A3031 RMK A01 T00171088  RH  046%=      5-min Rain = 0
KSB1 130643Z 27005KT 02/M09 A3031 RMK A01 T00181088  RH  045%=      5-min Rain = 0
KSB1 130644Z 27005KT 02/M09 A3031 RMK A01 T00181088  RH  045%=      5-min Rain = 0
KSB1 130645Z 27005KT 02/M09 A3031 RMK A01 T00181088  RH  045%=      5-min Rain = 0
KSB1 130646Z 28006KT 02/M09 A3031 RMK A01 T00181089  RH  045%=      5-min Rain = 0
KSB1 130647Z 28006KT 02/M09 A3031 RMK A01 T00181088  RH  045%=      5-min Rain = 0
KSB1 130648Z 28007KT 02/M09 A3031 RMK A01 T00191088  RH  045%=      5-min Rain = 0
KSB1 130649Z 29007KT 02/M09 A3031 RMK A01 T00201088  RH  045%=      5-min Rain = 0
KSB1 130650Z 29008KT 02/M09 A3031 RMK A01 T00201088  RH  045%=      5-min Rain = 0
KSB1 130651Z 28008KT 02/M09 A3031 RMK A01 T00221087  RH  044%=      5-min Rain = 0
KSB1 130652Z 28007KT 02/M09 A3031 RMK A01 T00241087  RH  044%=      5-min Rain = 0
KSB1 130653Z 29007KT 02/M09 A3031 RMK A01 T00241088  RH  043%=      5-min Rain = 0
KSB1 130654Z 29008KT 02/M09 A3031 RMK A01 T00241088  RH  043%=      5-min Rain = 0
KSB1 130655Z 28007KT 03/M09 A3031 RMK A01 T00251088  RH  043%=      5-min Rain = 0
KSB1 130656Z 29007KT 03/M09 A3031 RMK A01 T00251088  RH  043%=      5-min Rain = 0
KSB1 130657Z 29007KT 03/M09 A3031 RMK A01 T00261088  RH  043%=      5-min Rain = 0
KSB1 130658Z 30006KT 03/M09 A3031 RMK A01 T00271088  RH  043%=      5-min Rain = 0
KSB1 130659Z 30004KT 02/M09 A3031 RMK A01 T00231092  RH  042%=      5-min Rain = 0
KSB1 130700Z 31004KT 02/M09 A3032 RMK A01 T00161094  RH  044%=      5-min Rain = 0
KSB1 130701Z 34003KT 01/M09 A3032 RMK A01 T00121093  RH  045%=      5-min Rain = 0
KSB1 130702Z 33002KT 01/M09 A3032 RMK A01 T00111092  RH  046%=      5-min Rain = 0
KSB1 130703Z 36001KT 01/M09 A3031 RMK A01 T00101091  RH  047%=      5-min Rain = 0
KSB1 130704Z 34001KT 01/M09 A3031 RMK A01 T00111091  RH  047%=      5-min Rain = 0
KSB1 130705Z 00001KT 01/M09 A3031 RMK A01 T00111092  RH  046%=      5-min Rain = 0
KSB1 130706Z 02002KT 01/M09 A3032 RMK A01 T00101093  RH  046%=      5-min Rain = 0
KSB1 130707Z 03002KT 01/M10 A3032 RMK A01 T00061095  RH  047%=      5-min Rain = 0
KSB1 130708Z 04003KT 00/M10 A3032 RMK A01 T00021096  RH  048%=      5-min Rain = 0
KSB1 130709Z 03003KT M00/M10 A3032 RMK A01 T10031097  RH  049%=      5-min Rain = 0
KSB1 130710Z 03002KT M01/M10 A3032 RMK A01 T10061096  RH  050%=      5-min Rain = 0
KSB1 130711Z 02003KT M01/M10 A3032 RMK A01 T10071096  RH  051%=      5-min Rain = 0
KSB1 130712Z 06002KT M01/M10 A3032 RMK A01 T10071095  RH  051%=      5-min Rain = 0
KSB1 130713Z 02003KT M01/M10 A3032 RMK A01 T10061095  RH  051%=      5-min Rain = 0
KSB1 130714Z 03002KT M01/M09 A3032 RMK A01 T10061094  RH  051%=      5-min Rain = 0
KSB1 130715Z 00002KT M01/M09 A3032 RMK A01 T10051094  RH  051%=      5-min Rain = 0
KSB1 130716Z 35002KT M00/M09 A3032 RMK A01 T10041093  RH  051%=      5-min Rain = 0
KSB1 130717Z 01001KT M00/M09 A3032 RMK A01 T10031094  RH  050%=      5-min Rain = 0
KSB1 130718Z 34000KT M00/M09 A3032 RMK A01 T10041094  RH  050%=      5-min Rain = 0
KSB1 130719Z 33000KT M00/M09 A3032 RMK A01 T10041094  RH  051%=      5-min Rain = 0
KSB1 130720Z 30000KT M00/M09 A3032 RMK A01 T10031093  RH  051%=      5-min Rain = 0
KSB1 130721Z 21001KT M00/M09 A3032 RMK A01 T10021093  RH  050%=      5-min Rain = 0
KSB1 130722Z 22001KT M00/M09 A3032 RMK A01 T10011092  RH  050%=      5-min Rain = 0
KSB1 130723Z 24001KT 00/M09 A3032 RMK A01 T00011092  RH  050%=      5-min Rain = 0
KSB1 130724Z 31000KT 00/M09 A3032 RMK A01 T00011092  RH  050%=      5-min Rain = 0
KSB1 130725Z 30002KT 00/M09 A3032 RMK A01 T00021091  RH  049%=      5-min Rain = 0
KSB1 130726Z 31006KT 00/M09 A3032 RMK A01 T00041090  RH  049%=      5-min Rain = 0
KSB1 130727Z 31006KT 01/M09 A3032 RMK A01 T00101088  RH  048%=      5-min Rain = 0
KSB1 130728Z 31008KT 02/M09 A3032 RMK A01 T00191086  RH  046%=      5-min Rain = 0
KSB1 130729Z 30008KT 03/M09 A3032 RMK A01 T00251087  RH  044%=      5-min Rain = 0
KSB1 130730Z 30010KT 03/M09 A3032 RMK A01 T00301087  RH  042%=      5-min Rain = 0
KSB1 130731Z 30010KT 03/M09 A3032 RMK A01 T00341088  RH  040%=      5-min Rain = 0
KSB1 130732Z 30010KT 04/M09 A3032 RMK A01 T00361089  RH  040%=      5-min Rain = 0
KSB1 130733Z 30011KT 04/M09 A3032 RMK A01 T00371090  RH  039%=      5-min Rain = 0
KSB1 130734Z 30011KT 04/M09 A3032 RMK A01 T00381090  RH  039%=      5-min Rain = 0
KSB1 130735Z 30011KT 04/M09 A3032 RMK A01 T00391091  RH  038%=      5-min Rain = 0
KSB1 130736Z 30011KT 04/M09 A3032 RMK A01 T00391091  RH  038%=      5-min Rain = 0
KSB1 130737Z 30011KT 04/M09 A3032 RMK A01 T00401091  RH  038%=      5-min Rain = 0
KSB1 130738Z 30011KT 04/M09 A3032 RMK A01 T00401091  RH  038%=      5-min Rain = 0
KSB1 130739Z 30012KT 04/M09 A3032 RMK A01 T00411091  RH  038%=      5-min Rain = 0
KSB1 130740Z 30011KT 04/M09 A3033 RMK A01 T00411091  RH  038%=      5-min Rain = 0
KSB1 130741Z 30012KT 04/M09 A3033 RMK A01 T00411091  RH  037%=      5-min Rain = 0
KSB1 130742Z 29011KT 04/M09 A3033 RMK A01 T00411091  RH  038%=      5-min Rain = 0
KSB1 130743Z 29009KT 04/M09 A3033 RMK A01 T00401091  RH  038%=      5-min Rain = 0
KSB1 130744Z 29011KT 04/M09 A3033 RMK A01 T00371092  RH  038%=      5-min Rain = 0
KSB1 130745Z 29009KT 04/M09 A3033 RMK A01 T00351092  RH  039%=      5-min Rain = 0
KSB1 130746Z 29010KT 03/M09 A3033 RMK A01 T00301093  RH  040%=      5-min Rain = 0
KSB1 130747Z 29010KT 03/M09 A3033 RMK A01 T00271092  RH  041%=      5-min Rain = 0
KSB1 130748Z 29010KT 03/M09 A3033 RMK A01 T00251091  RH  042%=      5-min Rain = 0
KSB1 130749Z 29010KT 03/M09 A3033 RMK A01 T00251091  RH  042%=      5-min Rain = 0
KSB1 130750Z 28009KT 03/M09 A3033 RMK A01 T00261090  RH  042%=      5-min Rain = 0
KSB1 130751Z 29010KT 03/M09 A3033 RMK A01 T00261090  RH  042%=      5-min Rain = 0
KSB1 130752Z 29010KT 03/M09 A3033 RMK A01 T00261089  RH  042%=      5-min Rain = 0
KSB1 130753Z 29011KT 03/M09 A3033 RMK A01 T00251089  RH  043%=      5-min Rain = 0
KSB1 130754Z 29011KT 02/M09 A3033 RMK A01 T00241089  RH  043%=      5-min Rain = 0
KSB1 130755Z 29010KT 03/M09 A3033 RMK A01 T00251089  RH  043%=      5-min Rain = 0
KSB1 130756Z 29010KT 03/M09 A3033 RMK A01 T00261089  RH  043%=      5-min Rain = 0
KSB1 130757Z 29009KT 03/M09 A3033 RMK A01 T00261089  RH  042%=      5-min Rain = 0
KSB1 130758Z 29009KT 03/M09 A3033 RMK A01 T00261089  RH  042%=      5-min Rain = 0
KSB1 130759Z 29010KT 03/M09 A3033 RMK A01 T00271090  RH  042%=      5-min Rain = 0
KSB1 130800Z 29009KT 03/M09 A3033 RMK A01 T00301090  RH  041%=      5-min Rain = 0
KSB1 130801Z 29009KT 03/M09 A3033 RMK A01 T00311090  RH  041%=      5-min Rain = 0
KSB1 130802Z 30008KT 03/M09 A3033 RMK A01 T00311091  RH  040%=      5-min Rain = 0
KSB1 130803Z 30008KT 03/M09 A3033 RMK A01 T00321091  RH  040%=      5-min Rain = 0
KSB1 130804Z 29008KT 03/M09 A3033 RMK A01 T00341092  RH  039%=      5-min Rain = 0
KSB1 130805Z 29007KT 04/M09 A3033 RMK A01 T00351092  RH  039%=      5-min Rain = 0
KSB1 130806Z 29007KT 03/M09 A3033 RMK A01 T00341093  RH  039%=      5-min Rain = 0
KSB1 130807Z 29008KT 03/M09 A3033 RMK A01 T00331093  RH  039%=      5-min Rain = 0
KSB1 130808Z 29009KT 03/M09 A3033 RMK A01 T00331093  RH  039%=      5-min Rain = 0
KSB1 130809Z 29007KT 04/M09 A3034 RMK A01 T00361093  RH  038%=      5-min Rain = 0
KSB1 130810Z 29007KT 04/M09 A3033 RMK A01 T00361094  RH  038%=      5-min Rain = 0
KSB1 130811Z 29007KT 04/M09 A3034 RMK A01 T00361094  RH  038%=      5-min Rain = 0
KSB1 130812Z 29007KT 04/M09 A3034 RMK A01 T00361094  RH  038%=      5-min Rain = 0
KSB1 130813Z 30008KT 04/M10 A3034 RMK A01 T00351095  RH  038%=      5-min Rain = 0
KSB1 130814Z 30007KT 04/M09 A3034 RMK A01 T00351094  RH  038%=      5-min Rain = 0
KSB1 130815Z 30009KT 04/M10 A3033 RMK A01 T00351095  RH  038%=      5-min Rain = 0
KSB1 130816Z 29009KT 04/M09 A3033 RMK A01 T00361094  RH  038%=      5-min Rain = 0
KSB1 130817Z 29010KT 04/M09 A3033 RMK A01 T00371094  RH  038%=      5-min Rain = 0
KSB1 130818Z 30009KT 04/M09 A3033 RMK A01 T00381094  RH  037%=      5-min Rain = 0
KSB1 130819Z 29010KT 04/M09 A3033 RMK A01 T00391094  RH  037%=      5-min Rain = 0
KSB1 130820Z 29009KT 04/M09 A3033 RMK A01 T00411094  RH  037%=      5-min Rain = 0
KSB1 130821Z 30009KT 04/M10 A3033 RMK A01 T00421095  RH  036%=      5-min Rain = 0
KSB1 130822Z 30010KT 04/M10 A3033 RMK A01 T00421095  RH  036%=      5-min Rain = 0
KSB1 130823Z 30008KT 04/M10 A3033 RMK A01 T00421095  RH  036%=      5-min Rain = 0
KSB1 130824Z 29008KT 04/M10 A3033 RMK A01 T00421095  RH  036%=      5-min Rain = 0
KSB1 130825Z 29008KT 04/M10 A3033 RMK A01 T00411095  RH  036%=      5-min Rain = 0
KSB1 130826Z 29008KT 04/M10 A3033 RMK A01 T00401095  RH  037%=      5-min Rain = 0
KSB1 130827Z 30009KT 04/M10 A3033 RMK A01 T00381095  RH  037%=      5-min Rain = 0
KSB1 130828Z 29009KT 04/M10 A3033 RMK A01 T00381095  RH  037%=      5-min Rain = 0
KSB1 130829Z 29008KT 04/M09 A3033 RMK A01 T00371094  RH  038%=      5-min Rain = 0
KSB1 130830Z 28007KT 04/M09 A3033 RMK A01 T00361094  RH  038%=      5-min Rain = 0
KSB1 130831Z 29007KT 04/M09 A3033 RMK A01 T00351094  RH  038%=      5-min Rain = 0
KSB1 130832Z 29006KT 03/M09 A3034 RMK A01 T00341094  RH  039%=      5-min Rain = 0
KSB1 130833Z 29006KT 03/M10 A3034 RMK A01 T00321095  RH  039%=      5-min Rain = 0
KSB1 130834Z 29006KT 03/M09 A3034 RMK A01 T00301094  RH  039%=      5-min Rain = 0
KSB1 130835Z 28006KT 03/M10 A3034 RMK A01 T00281095  RH  040%=      5-min Rain = 0
KSB1 130836Z 29008KT 03/M10 A3034 RMK A01 T00251095  RH  041%=      5-min Rain = 0
KSB1 130837Z 30008KT 02/M10 A3034 RMK A01 T00241095  RH  041%=      5-min Rain = 0
KSB1 130838Z 29007KT 03/M09 A3034 RMK A01 T00251094  RH  041%=      5-min Rain = 0
KSB1 130839Z 30008KT 03/M09 A3034 RMK A01 T00251094  RH  041%=      5-min Rain = 0
KSB1 130840Z 29008KT 03/M09 A3034 RMK A01 T00281093  RH  041%=      5-min Rain = 0
KSB1 130841Z 29007KT 03/M09 A3034 RMK A01 T00301093  RH  040%=      5-min Rain = 0
KSB1 130842Z 29008KT 03/M09 A3033 RMK A01 T00301093  RH  040%=      5-min Rain = 0
KSB1 130843Z 30008KT 03/M09 A3033 RMK A01 T00311093  RH  040%=      5-min Rain = 0
KSB1 130844Z 30007KT 03/M09 A3033 RMK A01 T00311093  RH  040%=      5-min Rain = 0
KSB1 130845Z 30006KT 03/M09 A3033 RMK A01 T00291094  RH  040%=      5-min Rain = 0
KSB1 130846Z 29006KT 03/M09 A3033 RMK A01 T00281093  RH  041%=      5-min Rain = 0
KSB1 130847Z 29007KT 03/M09 A3033 RMK A01 T00271093  RH  041%=      5-min Rain = 0
KSB1 130848Z 29008KT 03/M09 A3033 RMK A01 T00251093  RH  041%=      5-min Rain = 0
KSB1 130849Z 30007KT 02/M09 A3033 RMK A01 T00241093  RH  042%=      5-min Rain = 0
KSB1 130850Z 29008KT 02/M09 A3033 RMK A01 T00231092  RH  042%=      5-min Rain = 0
KSB1 130851Z 29009KT 02/M09 A3033 RMK A01 T00231092  RH  042%=      5-min Rain = 0
KSB1 130852Z 29010KT 02/M09 A3033 RMK A01 T00221092  RH  042%=      5-min Rain = 0
KSB1 130853Z 28010KT 02/M09 A3033 RMK A01 T00211092  RH  043%=      5-min Rain = 0
KSB1 130854Z 28008KT 02/M09 A3033 RMK A01 T00211091  RH  043%=      5-min Rain = 0
KSB1 130855Z 29009KT 02/M09 A3033 RMK A01 T00191092  RH  043%=      5-min Rain = 0
KSB1 130856Z 28009KT 02/M09 A3033 RMK A01 T00181092  RH  044%=      5-min Rain = 0
KSB1 130857Z 28009KT 02/M09 A3033 RMK A01 T00181092  RH  044%=      5-min Rain = 0
KSB1 130858Z 28008KT 02/M09 A3033 RMK A01 T00181092  RH  044%=      5-min Rain = 0
KSB1 130859Z 28009KT 02/M09 A3033 RMK A01 T00171092  RH  044%=      5-min Rain = 0
KSB1 130900Z 28009KT 02/M09 A3033 RMK A01 T00161092  RH  045%=      5-min Rain = 0
KSB1 130901Z 27008KT 02/M09 A3033 RMK A01 T00151092  RH  045%=      5-min Rain = 0
KSB1 130902Z 27009KT 01/M09 A3033 RMK A01 T00141092  RH  045%=      5-min Rain = 0
KSB1 130903Z 27009KT 01/M09 A3033 RMK A01 T00131092  RH  046%=      5-min Rain = 0
KSB1 130904Z 27009KT 01/M09 A3033 RMK A01 T00121091  RH  046%=      5-min Rain = 0
KSB1 130905Z 27009KT 01/M09 A3033 RMK A01 T00121091  RH  046%=      5-min Rain = 0
KSB1 130906Z 27009KT 01/M09 A3033 RMK A01 T00131090  RH  046%=      5-min Rain = 0
KSB1 130907Z 27009KT 01/M09 A3033 RMK A01 T00141090  RH  046%=      5-min Rain = 0
KSB1 130908Z 28010KT 01/M09 A3033 RMK A01 T00141091  RH  046%=      5-min Rain = 0
KSB1 130909Z 28009KT 01/M09 A3033 RMK A01 T00141091  RH  046%=      5-min Rain = 0
KSB1 130910Z 28010KT 02/M09 A3033 RMK A01 T00151090  RH  046%=      5-min Rain = 0
KSB1 130911Z 28009KT 02/M09 A3033 RMK A01 T00151090  RH  045%=      5-min Rain = 0
KSB1 130912Z 28009KT 02/M09 A3033 RMK A01 T00151091  RH  045%=      5-min Rain = 0
KSB1 130913Z 28009KT 01/M09 A3033 RMK A01 T00131092  RH  046%=      5-min Rain = 0
KSB1 130914Z 28009KT 01/M09 A3033 RMK A01 T00101092  RH  046%=      5-min Rain = 0
KSB1 130915Z 29009KT 01/M09 A3033 RMK A01 T00091092  RH  047%=      5-min Rain = 0
KSB1 130916Z 29009KT 01/M09 A3033 RMK A01 T00081092  RH  047%=      5-min Rain = 0
KSB1 130917Z 29009KT 01/M09 A3033 RMK A01 T00081091  RH  047%=      5-min Rain = 0
KSB1 130918Z 29009KT 01/M09 A3033 RMK A01 T00091091  RH  047%=      5-min Rain = 0
KSB1 130919Z 29009KT 01/M09 A3033 RMK A01 T00091091  RH  047%=      5-min Rain = 0
KSB1 130920Z 28009KT 01/M09 A3033 RMK A01 T00091091  RH  047%=      5-min Rain = 0
KSB1 130921Z 28009KT 01/M09 A3033 RMK A01 T00091092  RH  047%=      5-min Rain = 0
KSB1 130922Z 27009KT 01/M09 A3033 RMK A01 T00081092  RH  047%=      5-min Rain = 0
KSB1 130923Z 27009KT 01/M09 A3032 RMK A01 T00071093  RH  047%=      5-min Rain = 0
KSB1 130924Z 28009KT 01/M09 A3032 RMK A01 T00071092  RH  048%=      5-min Rain = 0
KSB1 130925Z 28010KT 01/M09 A3032 RMK A01 T00071092  RH  048%=      5-min Rain = 0
KSB1 130926Z 27009KT 01/M09 A3032 RMK A01 T00081092  RH  047%=      5-min Rain = 0
KSB1 130927Z 27009KT 01/M09 A3032 RMK A01 T00081092  RH  047%=      5-min Rain = 0
KSB1 130928Z 28010KT 01/M09 A3032 RMK A01 T00081093  RH  047%=      5-min Rain = 0
KSB1 130929Z 28010KT 01/M09 A3032 RMK A01 T00101092  RH  046%=      5-min Rain = 0
KSB1 130930Z 27009KT 01/M09 A3032 RMK A01 T00111092  RH  046%=      5-min Rain = 0
KSB1 130931Z 27009KT 01/M09 A3032 RMK A01 T00121093  RH  045%=      5-min Rain = 0
KSB1 130932Z 27009KT 01/M09 A3032 RMK A01 T00121094  RH  045%=      5-min Rain = 0
KSB1 130933Z 27009KT 01/M09 A3032 RMK A01 T00111094  RH  045%=      5-min Rain = 0
KSB1 130934Z 27009KT 01/M09 A3032 RMK A01 T00111094  RH  045%=      5-min Rain = 0
KSB1 130935Z 27009KT 01/M09 A3032 RMK A01 T00111094  RH  045%=      5-min Rain = 0
KSB1 130936Z 28007KT 01/M09 A3032 RMK A01 T00111094  RH  045%=      5-min Rain = 0
KSB1 130937Z 28008KT 01/M10 A3032 RMK A01 T00101095  RH  045%=      5-min Rain = 0
KSB1 130938Z 28008KT 01/M10 A3032 RMK A01 T00091096  RH  045%=      5-min Rain = 0
KSB1 130939Z 28007KT 01/M10 A3032 RMK A01 T00091096  RH  045%=      5-min Rain = 0
KSB1 130940Z 28008KT 01/M10 A3032 RMK A01 T00091096  RH  045%=      5-min Rain = 0
KSB1 130941Z 28008KT 01/M10 A3032 RMK A01 T00091096  RH  045%=      5-min Rain = 0
KSB1 130942Z 29009KT 01/M10 A3032 RMK A01 T00091097  RH  045%=      5-min Rain = 0
KSB1 130943Z 28010KT 01/M10 A3032 RMK A01 T00111096  RH  045%=      5-min Rain = 0
KSB1 130944Z 29008KT 02/M09 A3031 RMK A01 T00181093  RH  044%=      5-min Rain = 0
KSB1 130945Z 29009KT 02/M09 A3031 RMK A01 T00231094  RH  042%=      5-min Rain = 0
KSB1 130946Z 29009KT 03/M10 A3031 RMK A01 T00281095  RH  040%=      5-min Rain = 0
KSB1 130947Z 29008KT 03/M10 A3031 RMK A01 T00301096  RH  039%=      5-min Rain = 0
KSB1 130948Z 29008KT 03/M10 A3031 RMK A01 T00311097  RH  038%=      5-min Rain = 0
KSB1 130949Z 29009KT 03/M10 A3031 RMK A01 T00311097  RH  038%=      5-min Rain = 0
KSB1 130950Z 30009KT 03/M10 A3031 RMK A01 T00311097  RH  038%=      5-min Rain = 0
KSB1 130951Z 29008KT 03/M10 A3031 RMK A01 T00341096  RH  038%=      5-min Rain = 0
KSB1 130952Z 29008KT 03/M10 A3031 RMK A01 T00341097  RH  038%=      5-min Rain = 0
KSB1 130953Z 29008KT 03/M10 A3031 RMK A01 T00341097  RH  037%=      5-min Rain = 0
KSB1 130954Z 30008KT 04/M10 A3031 RMK A01 T00351097  RH  037%=      5-min Rain = 0
KSB1 130955Z 30009KT 04/M10 A3031 RMK A01 T00351097  RH  037%=      5-min Rain = 0
KSB1 130956Z 29009KT 04/M10 A3031 RMK A01 T00371097  RH  037%=      5-min Rain = 0
KSB1 130957Z 29009KT 04/M10 A3031 RMK A01 T00381097  RH  037%=      5-min Rain = 0
KSB1 130958Z 29009KT 04/M10 A3031 RMK A01 T00391097  RH  037%=      5-min Rain = 0
KSB1 130959Z 29008KT 04/M10 A3031 RMK A01 T00391097  RH  036%=      5-min Rain = 0
KSB1 131000Z 29007KT 04/M10 A3031 RMK A01 T00391097  RH  036%=      5-min Rain = 0
KSB1 131001Z 29007KT 04/M10 A3031 RMK A01 T00381098  RH  037%=      5-min Rain = 0
KSB1 131002Z 29007KT 04/M10 A3031 RMK A01 T00361098  RH  037%=      5-min Rain = 0
KSB1 131003Z 29007KT 04/M10 A3031 RMK A01 T00361098  RH  037%=      5-min Rain = 0
KSB1 131004Z 29007KT 04/M10 A3031 RMK A01 T00351098  RH  037%=      5-min Rain = 0
KSB1 131005Z 29006KT 04/M10 A3031 RMK A01 T00351097  RH  037%=      5-min Rain = 0
KSB1 131006Z 29006KT 04/M10 A3031 RMK A01 T00351097  RH  037%=      5-min Rain = 0
KSB1 131007Z 29006KT 03/M10 A3031 RMK A01 T00341098  RH  037%=      5-min Rain = 0
KSB1 131008Z 28007KT 03/M10 A3031 RMK A01 T00341098  RH  037%=      5-min Rain = 0
KSB1 131009Z 29007KT 03/M10 A303 RMK A01 T00341098  RH  037%=      5-min Rain = 0
KSB1 131010Z 29006KT 03/M10 A303 RMK A01 T00341098  RH  038%=      5-min Rain = 0
KSB1 131011Z 29006KT 03/M10 A303 RMK A01 T00331098  RH  038%=      5-min Rain = 0
KSB1 131012Z 29007KT 03/M10 A303 RMK A01 T00321098  RH  038%=      5-min Rain = 0
KSB1 131013Z 29007KT 03/M10 A303 RMK A01 T00311098  RH  038%=      5-min Rain = 0
KSB1 131014Z 29007KT 03/M10 A303 RMK A01 T00301098  RH  038%=      5-min Rain = 0
KSB1 131015Z 29007KT 03/M10 A303 RMK A01 T00301098  RH  038%=      5-min Rain = 0
KSB1 131016Z 29007KT 03/M10 A303 RMK A01 T00311098  RH  038%=      5-min Rain = 0
KSB1 131017Z 29008KT 03/M10 A303 RMK A01 T00301099  RH  038%=      5-min Rain = 0
KSB1 131018Z 29008KT 03/M10 A303 RMK A01 T00301099  RH  038%=      5-min Rain = 0
KSB1 131019Z 30008KT 03/M10 A303 RMK A01 T00311099  RH  038%=      5-min Rain = 0
KSB1 131020Z 29009KT 03/M10 A303 RMK A01 T00311099  RH  038%=      5-min Rain = 0
KSB1 131021Z 29008KT 03/M10 A303 RMK A01 T00311099  RH  038%=      5-min Rain = 0
KSB1 131022Z 29009KT 03/M10 A303 RMK A01 T00321100  RH  038%=      5-min Rain = 0
KSB1 131023Z 29008KT 03/M10 A303 RMK A01 T00311100  RH  038%=      5-min Rain = 0
KSB1 131024Z 30008KT 03/M10 A303 RMK A01 T00301101  RH  038%=      5-min Rain = 0
KSB1 131025Z 30009KT 03/M10 A303 RMK A01 T00291101  RH  038%=      5-min Rain = 0
KSB1 131026Z 30008KT 03/M10 A303 RMK A01 T00291101  RH  038%=      5-min Rain = 0
KSB1 131027Z 30008KT 03/M10 A303 RMK A01 T00291101  RH  038%=      5-min Rain = 0
KSB1 131028Z 30009KT 03/M10 A303 RMK A01 T00291102  RH  038%=      5-min Rain = 0
KSB1 131029Z 29009KT 03/M10 A303 RMK A01 T00291101  RH  038%=      5-min Rain = 0
KSB1 131030Z 30008KT 03/M10 A303 RMK A01 T00291101  RH  038%=      5-min Rain = 0
KSB1 131031Z 29008KT 03/M10 A303 RMK A01 T00281102  RH  038%=      5-min Rain = 0
KSB1 131032Z 29007KT 03/M10 A303 RMK A01 T00281102  RH  038%=      5-min Rain = 0
KSB1 131033Z 29007KT 03/M10 A303 RMK A01 T00281102  RH  038%=      5-min Rain = 0
KSB1 131034Z 29007KT 03/M10 A303 RMK A01 T00281101  RH  038%=      5-min Rain = 0
KSB1 131035Z 28007KT 03/M10 A303 RMK A01 T00281101  RH  038%=      5-min Rain = 0
KSB1 131036Z 29007KT 03/M10 A303 RMK A01 T00281101  RH  038%=      5-min Rain = 0
KSB1 131037Z 28006KT 03/M10 A303 RMK A01 T00281102  RH  038%=      5-min Rain = 0
KSB1 131038Z 28006KT 03/M10 A303 RMK A01 T00281102  RH  038%=      5-min Rain = 0
KSB1 131039Z 28005KT 03/M10 A303 RMK A01 T00271102  RH  038%=      5-min Rain = 0
KSB1 131040Z 28005KT 03/M10 A303 RMK A01 T00261103  RH  038%=      5-min Rain = 0
KSB1 131041Z 28005KT 02/M10 A303 RMK A01 T00241103  RH  038%=      5-min Rain = 0
KSB1 131042Z 28005KT 02/M10 A303 RMK A01 T00231103  RH  039%=      5-min Rain = 0
KSB1 131043Z 27005KT 02/M10 A303 RMK A01 T00201104  RH  039%=      5-min Rain = 0
KSB1 131044Z 27005KT 02/M11 A303 RMK A01 T00171106  RH  040%=      5-min Rain = 0
KSB1 131045Z 28005KT 01/M11 A303 RMK A01 T00141106  RH  040%=      5-min Rain = 0
KSB1 131046Z 29005KT 01/M11 A303 RMK A01 T00121105  RH  041%=      5-min Rain = 0
KSB1 131047Z 29005KT 01/M10 A303 RMK A01 T00131104  RH  042%=      5-min Rain = 0
KSB1 131048Z 28005KT 01/M10 A303 RMK A01 T00141103  RH  041%=      5-min Rain = 0
KSB1 131049Z 28006KT 02/M10 A303 RMK A01 T00161103  RH  041%=      5-min Rain = 0
KSB1 131050Z 29007KT 02/M10 A303 RMK A01 T00181104  RH  040%=      5-min Rain = 0
KSB1 131051Z 28005KT 02/M10 A303 RMK A01 T00201104  RH  040%=      5-min Rain = 0
KSB1 131052Z 29005KT 02/M10 A303 RMK A01 T00211104  RH  039%=      5-min Rain = 0
KSB1 131053Z 29006KT 02/M10 A303 RMK A01 T00211104  RH  039%=      5-min Rain = 0
KSB1 131054Z 28005KT 02/M11 A303 RMK A01 T00221105  RH  039%=      5-min Rain = 0
KSB1 131055Z 28006KT 02/M11 A303 RMK A01 T00221105  RH  038%=      5-min Rain = 0
KSB1 131056Z 28006KT 02/M11 A303 RMK A01 T00231106  RH  038%=      5-min Rain = 0
KSB1 131057Z 28006KT 02/M11 A303 RMK A01 T00231106  RH  038%=      5-min Rain = 0
KSB1 131058Z 28005KT 02/M11 A303 RMK A01 T00221107  RH  038%=      5-min Rain = 0
KSB1 131059Z 28006KT 02/M11 A303 RMK A01 T00201107  RH  038%=      5-min Rain = 0
KSB1 131100Z 28007KT 02/M11 A303 RMK A01 T00181107  RH  039%=      5-min Rain = 0
KSB1 131101Z 28006KT 02/M11 A303 RMK A01 T00181107  RH  039%=      5-min Rain = 0
KSB1 131102Z 27007KT 02/M11 A303 RMK A01 T00161107  RH  039%=      5-min Rain = 0
KSB1 131103Z 27007KT 02/M11 A303 RMK A01 T00151107  RH  040%=      5-min Rain = 0
KSB1 131104Z 28007KT 02/M11 A303 RMK A01 T00151107  RH  040%=      5-min Rain = 0
KSB1 131105Z 26006KT 02/M11 A303 RMK A01 T00161106  RH  040%=      5-min Rain = 0
KSB1 131106Z 26008KT 02/M11 A303 RMK A01 T00191105  RH  039%=      5-min Rain = 0
KSB1 131107Z 27006KT 02/M11 A303 RMK A01 T00191106  RH  039%=      5-min Rain = 0
KSB1 131108Z 26006KT 02/M11 A303 RMK A01 T00201107  RH  039%=      5-min Rain = 0
KSB1 131109Z 25006KT 02/M11 A303 RMK A01 T00201107  RH  039%=      5-min Rain = 0
KSB1 131110Z 25006KT 02/M11 A303 RMK A01 T00181109  RH  039%=      5-min Rain = 0
KSB1 131111Z 25006KT 02/M11 A303 RMK A01 T00151109  RH  039%=      5-min Rain = 0
KSB1 131112Z 25006KT 01/M11 A303 RMK A01 T00131108  RH  040%=      5-min Rain = 0
KSB1 131113Z 26006KT 01/M11 A303 RMK A01 T00121108  RH  040%=      5-min Rain = 0
KSB1 131114Z 27007KT 01/M11 A303 RMK A01 T00121108  RH  040%=      5-min Rain = 0
KSB1 131115Z 27006KT 01/M11 A303 RMK A01 T00131107  RH  040%=      5-min Rain = 0
KSB1 131116Z 28005KT 01/M11 A303 RMK A01 T00141107  RH  040%=      5-min Rain = 0
KSB1 131117Z 28006KT 01/M11 A303 RMK A01 T00131107  RH  040%=      5-min Rain = 0
KSB1 131118Z 28006KT 01/M11 A303 RMK A01 T00121108  RH  041%=      5-min Rain = 0
KSB1 131119Z 29006KT 01/M11 A303 RMK A01 T00101108  RH  041%=      5-min Rain = 0
KSB1 131120Z 29006KT 01/M11 A303 RMK A01 T00091107  RH  041%=      5-min Rain = 0
KSB1 131121Z 29006KT 01/M11 A303 RMK A01 T00101106  RH  042%=      5-min Rain = 0
KSB1 131122Z 28005KT 01/M11 A303 RMK A01 T00121105  RH  041%=      5-min Rain = 0
KSB1 131123Z 26004KT 01/M11 A303 RMK A01 T00121106  RH  041%=      5-min Rain = 0
KSB1 131124Z 26003KT 01/M11 A303 RMK A01 T00091109  RH  041%=      5-min Rain = 0
KSB1 131125Z 26003KT 01/M11 A303 RMK A01 T00081109  RH  041%=      5-min Rain = 0
KSB1 131126Z 23003KT 01/M11 A303 RMK A01 T00071109  RH  042%=      5-min Rain = 0
KSB1 131127Z 23002KT 01/M11 A303 RMK A01 T00071108  RH  042%=      5-min Rain = 0
KSB1 131128Z 22003KT 01/M11 A303 RMK A01 T00071108  RH  042%=      5-min Rain = 0
KSB1 131129Z 22003KT 01/M11 A303 RMK A01 T00081107  RH  042%=      5-min Rain = 0
KSB1 131130Z 22003KT 01/M11 A303 RMK A01 T00091107  RH  041%=      5-min Rain = 0
KSB1 131131Z 23003KT 01/M11 A303 RMK A01 T00091108  RH  041%=      5-min Rain = 0
KSB1 131132Z 21004KT 01/M11 A303 RMK A01 T00101107  RH  041%=      5-min Rain = 0
KSB1 131133Z 20003KT 02/M10 A303 RMK A01 T00151104  RH  041%=      5-min Rain = 0
KSB1 131134Z 18002KT 02/M10 A303 RMK A01 T00211101  RH  040%=      5-min Rain = 0
KSB1 131135Z 21001KT 02/M10 A303 RMK A01 T00231103  RH  039%=      5-min Rain = 0
KSB1 131136Z 20002KT 02/M11 A303 RMK A01 T00231105  RH  038%=      5-min Rain = 0
KSB1 131137Z 22001KT 02/M11 A303 RMK A01 T00231105  RH  038%=      5-min Rain = 0
KSB1 131138Z 24001KT 02/M11 A303 RMK A01 T00231106  RH  038%=      5-min Rain = 0
KSB1 131139Z 28001KT 02/M11 A303 RMK A01 T00221107  RH  038%=      5-min Rain = 0
KSB1 131140Z 30001KT 02/M11 A303 RMK A01 T00201107  RH  038%=      5-min Rain = 0
KSB1 131141Z 28001KT 02/M11 A303 RMK A01 T00201106  RH  039%=      5-min Rain = 0
KSB1 131142Z 14001KT 02/M11 A303 RMK A01 T00221105  RH  038%=      5-min Rain = 0
KSB1 131143Z 16001KT 02/M11 A303 RMK A01 T00221105  RH  038%=      5-min Rain = 0
KSB1 131144Z 26002KT 02/M11 A303 RMK A01 T00231105  RH  038%=      5-min Rain = 0
KSB1 131145Z 26004KT 02/M11 A303 RMK A01 T00241105  RH  038%=      5-min Rain = 0
KSB1 131146Z 26003KT 03/M11 A303 RMK A01 T00251106  RH  037%=      5-min Rain = 0
KSB1 131147Z 25002KT 02/M11 A303 RMK A01 T00241107  RH  037%=      5-min Rain = 0
KSB1 131148Z 28003KT 02/M11 A303 RMK A01 T00241107  RH  038%=      5-min Rain = 0
KSB1 131149Z 27002KT 02/M11 A303 RMK A01 T00231107  RH  038%=      5-min Rain = 0
KSB1 131150Z 27002KT 02/M11 A303 RMK A01 T00231107  RH  038%=      5-min Rain = 0
KSB1 131151Z 26002KT 02/M11 A3029 RMK A01 T00211107  RH  038%=      5-min Rain = 0
KSB1 131152Z 28004G10KT 02/M11 A3029 RMK A01 T00181109  RH  038%=      5-min Rain = 0
KSB1 131153Z 27006KT 02/M11 A3029 RMK A01 T00161109  RH  039%=      5-min Rain = 0
KSB1 131154Z 28005KT 01/M11 A3029 RMK A01 T00141108  RH  040%=      5-min Rain = 0
KSB1 131155Z 28004KT 02/M11 A3029 RMK A01 T00151106  RH  040%=      5-min Rain = 0
KSB1 131156Z 22003KT 02/M11 A3029 RMK A01 T00161106  RH  040%=      5-min Rain = 0
KSB1 131157Z 26003KT 02/M11 A3029 RMK A01 T00151107  RH  040%=      5-min Rain = 0
KSB1 131158Z 29001KT 02/M11 A3029 RMK A01 T00151106  RH  040%=      5-min Rain = 0
KSB1 131159Z 25002KT 02/M11 A3029 RMK A01 T00151106  RH  040%=      5-min Rain = 0
KSB1 131200Z 22003KT 02/M11 A3029 RMK A01 T00151107  RH  040%=      5-min Rain = 0
KSB1 131201Z 21004KT 01/M11 A3029 RMK A01 T00141107  RH  040%=      5-min Rain = 0
KSB1 131202Z 22004KT 01/M11 A3029 RMK A01 T00131108  RH  040%=      5-min Rain = 0
KSB1 131203Z 21003KT 01/M11 A3029 RMK A01 T00121108  RH  040%=      5-min Rain = 0
KSB1 131204Z 21003KT 01/M11 A3029 RMK A01 T00111107  RH  041%=      5-min Rain = 0
KSB1 131205Z 22004KT 01/M11 A3029 RMK A01 T00111107  RH  041%=      5-min Rain = 0
KSB1 131206Z 22005KT 01/M11 A303 RMK A01 T00101107  RH  041%=      5-min Rain = 0
KSB1 131207Z 22004KT 01/M11 A303 RMK A01 T00081108  RH  042%=      5-min Rain = 0
KSB1 131208Z 22005KT 01/M11 A303 RMK A01 T00081107  RH  042%=      5-min Rain = 0
KSB1 131209Z 24005KT 01/M11 A303 RMK A01 T00081107  RH  042%=      5-min Rain = 0
KSB1 131210Z 25005KT 01/M11 A303 RMK A01 T00071107  RH  042%=      5-min Rain = 0
KSB1 131211Z 25005KT 01/M11 A303 RMK A01 T00071106  RH  042%=      5-min Rain = 0
KSB1 131212Z 24006KT 01/M11 A303 RMK A01 T00081106  RH  042%=      5-min Rain = 0
KSB1 131213Z 25006KT 01/M11 A303 RMK A01 T00061108  RH  042%=      5-min Rain = 0
KSB1 131214Z 25006KT 01/M11 A303 RMK A01 T00051107  RH  043%=      5-min Rain = 0
KSB1 131215Z 26006KT 01/M11 A303 RMK A01 T00071106  RH  043%=      5-min Rain = 0
KSB1 131216Z 26006KT 01/M11 A303 RMK A01 T00071106  RH  042%=      5-min Rain = 0
KSB1 131217Z 27006KT 01/M11 A303 RMK A01 T00081107  RH  042%=      5-min Rain = 0
KSB1 131218Z 27006KT 01/M11 A303 RMK A01 T00101106  RH  042%=      5-min Rain = 0
KSB1 131219Z 28006KT 01/M11 A303 RMK A01 T00121105  RH  041%=      5-min Rain = 0
KSB1 131220Z 28005KT 01/M11 A303 RMK A01 T00141105  RH  041%=      5-min Rain = 0
KSB1 131221Z 28005KT 02/M11 A303 RMK A01 T00151105  RH  040%=      5-min Rain = 0
KSB1 131222Z 27004KT 02/M11 A303 RMK A01 T00151106  RH  040%=      5-min Rain = 0
KSB1 131223Z 27005KT 02/M11 A303 RMK A01 T00161106  RH  040%=      5-min Rain = 0
KSB1 131224Z 27004KT 02/M11 A303 RMK A01 T00171105  RH  040%=      5-min Rain = 0
KSB1 131225Z 28004KT 02/M11 A303 RMK A01 T00191105  RH  039%=      5-min Rain = 0
KSB1 131226Z 28005KT 02/M11 A303 RMK A01 T00201105  RH  039%=      5-min Rain = 0
KSB1 131227Z 28004KT 02/M11 A303 RMK A01 T00181106  RH  039%=      5-min Rain = 0
KSB1 131228Z 29005KT 02/M11 A303 RMK A01 T00171106  RH  040%=      5-min Rain = 0
KSB1 131229Z 29006KT 02/M11 A303 RMK A01 T00161106  RH  040%=      5-min Rain = 0
KSB1 131230Z 28005KT 02/M11 A303 RMK A01 T00161106  RH  040%=      5-min Rain = 0
KSB1 131231Z 29003KT 01/M11 A303 RMK A01 T00111110  RH  040%=      5-min Rain = 0
KSB1 131232Z 29005KT 00/M12 A303 RMK A01 T00031115  RH  041%=      5-min Rain = 0
KSB1 131233Z 24004KT 00/11 A303 RMK A01 T00000-113  RH  042%=      5-min Rain = 0
KSB1 131234Z 25004KT M00/M11 A303 RMK A01 T10031113  RH  043%=      5-min Rain = 0
KSB1 131235Z 26003KT M00/M11 A303 RMK A01 T10041111  RH  044%=      5-min Rain = 0
KSB1 131236Z 24003KT M00/M11 A303 RMK A01 T10041110  RH  045%=      5-min Rain = 0
KSB1 131237Z 26003KT M01/M11 A303 RMK A01 T10051111  RH  045%=      5-min Rain = 0
KSB1 131238Z 25003KT M01/M11 A303 RMK A01 T10061110  RH  045%=      5-min Rain = 0
KSB1 131239Z 26002KT M01/M11 A303 RMK A01 T10061110  RH  045%=      5-min Rain = 0
KSB1 131240Z 25003KT M01/M11 A303 RMK A01 T10061110  RH  045%=      5-min Rain = 0
KSB1 131241Z 25003KT M01/M11 A303 RMK A01 T10061110  RH  045%=      5-min Rain = 0
KSB1 131242Z 24002KT M01/M11 A303 RMK A01 T10061110  RH  046%=      5-min Rain = 0
KSB1 131243Z 25002KT M01/M11 A303 RMK A01 T10061109  RH  046%=      5-min Rain = 0
KSB1 131244Z 27003KT M01/M11 A303 RMK A01 T10061109  RH  046%=      5-min Rain = 0
KSB1 131245Z 28003KT M01/M11 A303 RMK A01 T10061109  RH  046%=      5-min Rain = 0
KSB1 131246Z 27003KT M01/M11 A303 RMK A01 T10051108  RH  046%=      5-min Rain = 0
KSB1 131247Z 26002KT M00/M11 A303 RMK A01 T10031107  RH  045%=      5-min Rain = 0
KSB1 131248Z 28003KT M00/M11 A303 RMK A01 T10011107  RH  045%=      5-min Rain = 0
KSB1 131249Z 29002KT 00/M11 A303 RMK A01 T00021106  RH  044%=      5-min Rain = 0
KSB1 131250Z 30003KT 00/M11 A303 RMK A01 T00041106  RH  043%=      5-min Rain = 0
KSB1 131251Z 29002KT 01/M11 A303 RMK A01 T00071106  RH  043%=      5-min Rain = 0
KSB1 131252Z 27001KT 01/M11 A303 RMK A01 T00111105  RH  042%=      5-min Rain = 0
KSB1 131253Z 25001KT 01/M11 A303 RMK A01 T00141105  RH  041%=      5-min Rain = 0
KSB1 131254Z 26000KT 02/M11 A303 RMK A01 T00171106  RH  040%=      5-min Rain = 0
KSB1 131255Z 27000KT 02/M11 A303 RMK A01 T00181107  RH  039%=      5-min Rain = 0
KSB1 131256Z 00000KT 02/M11 A303 RMK A01 T00201106  RH  039%=      5-min Rain = 0
KSB1 131257Z 29001KT 02/M11 A303 RMK A01 T00221106  RH  038%=      5-min Rain = 0
KSB1 131258Z 26000KT 02/M11 A303 RMK A01 T00241106  RH  038%=      5-min Rain = 0
KSB1 131259Z 25002KT 02/M11 A303 RMK A01 T00241106  RH  037%=      5-min Rain = 0
KSB1 131300Z 25004KT 03/M11 A303 RMK A01 T00251107  RH  037%=      5-min Rain = 0
KSB1 131301Z 22005KT 03/M11 A303 RMK A01 T00251106  RH  037%=      5-min Rain = 0
KSB1 131302Z 24005KT 03/M11 A303 RMK A01 T00261106  RH  037%=      5-min Rain = 0
KSB1 131303Z 24005KT 03/M11 A303 RMK A01 T00251107  RH  037%=      5-min Rain = 0
KSB1 131304Z 24006KT 02/M11 A303 RMK A01 T00231108  RH  037%=      5-min Rain = 0
KSB1 131305Z 23005KT 02/M11 A303 RMK A01 T00221108  RH  038%=      5-min Rain = 0
KSB1 131306Z 24005KT 02/M11 A303 RMK A01 T00201109  RH  038%=      5-min Rain = 0
KSB1 131307Z 24004KT 02/M11 A303 RMK A01 T00171111  RH  038%=      5-min Rain = 0
KSB1 131308Z 24004KT 01/M11 A303 RMK A01 T00121112  RH  039%=      5-min Rain = 0
KSB1 131309Z 25004KT 01/M11 A303 RMK A01 T00091113  RH  040%=      5-min Rain = 0
KSB1 131310Z 25003KT 01/M11 A303 RMK A01 T00071112  RH  040%=      5-min Rain = 0
KSB1 131311Z 25003KT 01/M11 A303 RMK A01 T00051112  RH  041%=      5-min Rain = 0
KSB1 131312Z 26004KT 01/M11 A303 RMK A01 T00051111  RH  042%=      5-min Rain = 0
KSB1 131313Z 25004KT 01/M11 A303 RMK A01 T00071109  RH  042%=      5-min Rain = 0
KSB1 131314Z 24004KT 01/M11 A303 RMK A01 T00081109  RH  041%=      5-min Rain = 0
KSB1 131315Z 24004KT 01/M11 A303 RMK A01 T00081109  RH  041%=      5-min Rain = 0
KSB1 131316Z 24004KT 01/M11 A303 RMK A01 T00081110  RH  041%=      5-min Rain = 0
KSB1 131317Z 25004KT 01/M11 A303 RMK A01 T00091109  RH  041%=      5-min Rain = 0
KSB1 131318Z 26004KT 01/M11 A303 RMK A01 T00101109  RH  041%=      5-min Rain = 0
KSB1 131319Z 27004KT 01/M11 A303 RMK A01 T00101109  RH  041%=      5-min Rain = 0
KSB1 131320Z 27004KT 01/M11 A303 RMK A01 T00101110  RH  041%=      5-min Rain = 0
KSB1 131321Z 27004KT 01/M11 A303 RMK A01 T00071111  RH  041%=      5-min Rain = 0
KSB1 131322Z 27004KT 01/M11 A303 RMK A01 T00051111  RH  041%=      5-min Rain = 0
KSB1 131323Z 27004KT 01/M11 A303 RMK A01 T00051111  RH  042%=      5-min Rain = 0
KSB1 131324Z 28004KT 00/M11 A303 RMK A01 T00021112  RH  042%=      5-min Rain = 0
KSB1 131325Z 29005KT 00/M11 A303 RMK A01 T00011111  RH  043%=      5-min Rain = 0
KSB1 131326Z 29005KT 00/M11 A303 RMK A01 T00011110  RH  043%=      5-min Rain = 0
KSB1 131327Z 29006KT 00/M11 A303 RMK A01 T00041108  RH  043%=      5-min Rain = 0
KSB1 131328Z 28005KT 01/M11 A303 RMK A01 T00081106  RH  042%=      5-min Rain = 0
KSB1 131329Z 29004KT 01/M11 A303 RMK A01 T00111107  RH  041%=      5-min Rain = 0
KSB1 131330Z 28004KT 01/M11 A303 RMK A01 T00101109  RH  041%=      5-min Rain = 0
KSB1 131331Z 28004KT 01/M11 A303 RMK A01 T00101109  RH  041%=      5-min Rain = 0
KSB1 131332Z 27004KT 01/M11 A303 RMK A01 T00101109  RH  041%=      5-min Rain = 0
KSB1 131333Z 28005KT 01/M11 A303 RMK A01 T00111108  RH  041%=      5-min Rain = 0
KSB1 131334Z 29006KT 01/M11 A303 RMK A01 T00121107  RH  041%=      5-min Rain = 0
KSB1 131335Z 29007KT 01/M11 A303 RMK A01 T00131107  RH  040%=      5-min Rain = 0
KSB1 131336Z 29007KT 01/M11 A303 RMK A01 T00141108  RH  040%=      5-min Rain = 0
KSB1 131337Z 29007KT 01/M11 A303 RMK A01 T00141107  RH  040%=      5-min Rain = 0
KSB1 131338Z 30007KT 02/M11 A303 RMK A01 T00151107  RH  040%=      5-min Rain = 0
KSB1 131339Z 29007KT 02/M11 A3029 RMK A01 T00171106  RH  040%=      5-min Rain = 0
KSB1 131340Z 30006KT 02/M11 A3029 RMK A01 T00181106  RH  039%=      5-min Rain = 0
KSB1 131341Z 29005KT 02/M11 A3029 RMK A01 T00181107  RH  039%=      5-min Rain = 0
KSB1 131342Z 29006KT 02/M11 A3029 RMK A01 T00191107  RH  039%=      5-min Rain = 0
KSB1 131343Z 29005KT 02/M11 A3029 RMK A01 T00201107  RH  039%=      5-min Rain = 0
KSB1 131344Z 28006KT 02/M11 A3029 RMK A01 T00201107  RH  038%=      5-min Rain = 0
KSB1 131345Z 28005KT 02/M11 A3029 RMK A01 T00181109  RH  039%=      5-min Rain = 0
KSB1 131346Z 28005KT 01/M11 A3029 RMK A01 T00141109  RH  039%=      5-min Rain = 0
KSB1 131347Z 27005KT 01/M11 A3029 RMK A01 T00121109  RH  040%=      5-min Rain = 0
KSB1 131348Z 27005KT 01/M11 A3029 RMK A01 T00091110  RH  041%=      5-min Rain = 0
KSB1 131349Z 28005KT 00/M11 A3029 RMK A01 T00021113  RH  042%=      5-min Rain = 0
KSB1 131350Z 28006KT M00/M11 A3029 RMK A01 T10021112  RH  043%=      5-min Rain = 0
KSB1 131351Z 28006KT M00/M11 A3029 RMK A01 T10021110  RH  044%=      5-min Rain = 0
KSB1 131352Z 27005KT M00/M11 A3029 RMK A01 T10031110  RH  044%=      5-min Rain = 0
KSB1 131353Z 25005KT M01/M12 A3029 RMK A01 T10101116  RH  044%=      5-min Rain = 0
KSB1 131354Z 28005KT M02/M12 A3029 RMK A01 T10161117  RH  046%=      5-min Rain = 0
KSB1 131355Z 29006KT M02/M11 A3029 RMK A01 T10171113  RH  048%=      5-min Rain = 0
KSB1 131356Z 28007KT M01/M11 A3029 RMK A01 T10111106  RH  048%=      5-min Rain = 0
KSB1 131357Z 29006KT M00/M10 A3029 RMK A01 T10031103  RH  047%=      5-min Rain = 0
KSB1 131358Z 28005KT 00/M10 A3029 RMK A01 T00011104  RH  045%=      5-min Rain = 0
KSB1 131359Z 29005KT 00/M11 A3029 RMK A01 T00041106  RH  044%=      5-min Rain = 0
KSB1 131400Z 29004KT 01/M11 A3029 RMK A01 T00081105  RH  043%=      5-min Rain = 0
KSB1 131401Z 28003KT 01/M10 A3029 RMK A01 T00141104  RH  041%=      5-min Rain = 0
KSB1 131402Z 28002KT 02/M11 A3029 RMK A01 T00171106  RH  040%=      5-min Rain = 0
KSB1 131403Z 28001KT 02/M11 A3029 RMK A01 T00191107  RH  039%=      5-min Rain = 0
KSB1 131404Z 31001KT 02/M11 A3029 RMK A01 T00211108  RH  038%=      5-min Rain = 0
KSB1 131405Z 31002KT 02/M11 A3029 RMK A01 T00211108  RH  038%=      5-min Rain = 0
KSB1 131406Z 30003KT 02/M11 A3029 RMK A01 T00211109  RH  038%=      5-min Rain = 0
KSB1 131407Z 27003KT 02/M11 A3029 RMK A01 T00231108  RH  037%=      5-min Rain = 0
KSB1 131408Z 24002KT 03/M11 A303 RMK A01 T00271107  RH  037%=      5-min Rain = 0
KSB1 131409Z 25001KT 03/M11 A303 RMK A01 T00301107  RH  036%=      5-min Rain = 0
KSB1 131410Z 27002KT 03/M11 A303 RMK A01 T00301108  RH  035%=      5-min Rain = 0
KSB1 131411Z 29003KT 03/M11 A303 RMK A01 T00271110  RH  036%=      5-min Rain = 0
KSB1 131412Z 29003KT 02/M11 A303 RMK A01 T00241110  RH  036%=      5-min Rain = 0
KSB1 131413Z 29002KT 02/M11 A303 RMK A01 T00241109  RH  037%=      5-min Rain = 0
KSB1 131414Z 30003KT 03/M11 A303 RMK A01 T00251108  RH  037%=      5-min Rain = 0
KSB1 131415Z 33003KT 02/M11 A303 RMK A01 T00241109  RH  037%=      5-min Rain = 0
KSB1 131416Z 00002KT 02/M11 A303 RMK A01 T00221109  RH  037%=      5-min Rain = 0
KSB1 131417Z 02002KT 02/M11 A303 RMK A01 T00221109  RH  037%=      5-min Rain = 0
KSB1 131418Z 03001KT 02/M11 A303 RMK A01 T00231109  RH  037%=      5-min Rain = 0
KSB1 131419Z 04001KT 02/M11 A303 RMK A01 T00221109  RH  037%=      5-min Rain = 0
KSB1 131420Z 01002KT 02/M11 A303 RMK A01 T00231108  RH  037%=      5-min Rain = 0
KSB1 131421Z 01003KT 02/M11 A303 RMK A01 T00211109  RH  038%=      5-min Rain = 0
KSB1 131422Z 36003KT 02/M11 A303 RMK A01 T00181109  RH  038%=      5-min Rain = 0
KSB1 131423Z 01004KT 02/M11 A303 RMK A01 T00151109  RH  039%=      5-min Rain = 0
KSB1 131424Z 02003KT 01/M11 A303 RMK A01 T00131108  RH  040%=      5-min Rain = 0
KSB1 131425Z 02003KT 01/M11 A303 RMK A01 T00111108  RH  041%=      5-min Rain = 0
KSB1 131426Z 01003KT 01/M11 A303 RMK A01 T00101108  RH  041%=      5-min Rain = 0
KSB1 131427Z 36003KT 01/M11 A303 RMK A01 T00091108  RH  041%=      5-min Rain = 0
KSB1 131428Z 02001KT 01/M11 A303 RMK A01 T00091108  RH  041%=      5-min Rain = 0
KSB1 131429Z 32000KT 01/M11 A303 RMK A01 T00091108  RH  041%=      5-min Rain = 0
KSB1 131430Z 32000KT 01/M11 A303 RMK A01 T00091107  RH  041%=      5-min Rain = 0
KSB1 131431Z 18000KT 01/M11 A303 RMK A01 T00081108  RH  042%=      5-min Rain = 0
KSB1 131432Z 18001KT 00/M11 A303 RMK A01 T00041111  RH  042%=      5-min Rain = 0
KSB1 131433Z 22002KT 00/11 A303 RMK A01 T00-00-113  RH  043%=      5-min Rain = 0
KSB1 131434Z 22002KT M00/M11 A303 RMK A01 T10031113  RH  044%=      5-min Rain = 0
KSB1 131435Z 22003KT M01/M11 A303 RMK A01 T10061113  RH  044%=      5-min Rain = 0
KSB1 131436Z 21003KT M01/M11 A303 RMK A01 T10091113  RH  045%=      5-min Rain = 0
KSB1 131437Z 20003KT M01/M11 A303 RMK A01 T10091112  RH  046%=      5-min Rain = 0
KSB1 131438Z 20003KT M01/M11 A303 RMK A01 T10091111  RH  046%=      5-min Rain = 0
KSB1 131439Z 20004KT M01/M11 A303 RMK A01 T10081110  RH  046%=      5-min Rain = 0
KSB1 131440Z 21005KT M01/M11 A303 RMK A01 T10081109  RH  046%=      5-min Rain = 0
KSB1 131441Z 22004KT M01/M11 A303 RMK A01 T10081109  RH  046%=      5-min Rain = 0
KSB1 131442Z 23004KT M01/M11 A303 RMK A01 T10081108  RH  046%=      5-min Rain = 0
KSB1 131443Z 26004KT M01/M11 A303 RMK A01 T10061107  RH  047%=      5-min Rain = 0
KSB1 131444Z 25005KT M00/M11 A3031 RMK A01 T10041106  RH  046%=      5-min Rain = 0
KSB1 131445Z 25005KT M00/M11 A3031 RMK A01 T10011106  RH  045%=      5-min Rain = 0
KSB1 131446Z 26004KT 00/11 A3031 RMK A01 T00-00-106  RH  045%=      5-min Rain = 0
KSB1 131447Z 27004KT 00/11 A3031 RMK A01 T00000-107  RH  044%=      5-min Rain = 0
KSB1 131448Z 27005KT 00/11 A3031 RMK A01 T00000-107  RH  044%=      5-min Rain = 0
KSB1 131449Z 27006KT 00/M11 A303 RMK A01 T00011107  RH  044%=      5-min Rain = 0
KSB1 131450Z 27005KT 00/M11 A303 RMK A01 T00011107  RH  044%=      5-min Rain = 0
KSB1 131451Z 28004KT 00/M11 A303 RMK A01 T00021106  RH  044%=      5-min Rain = 0
KSB1 131452Z 27003KT 00/M11 A303 RMK A01 T00031106  RH  044%=      5-min Rain = 0
KSB1 131453Z 27003KT 00/M11 A303 RMK A01 T00041106  RH  044%=      5-min Rain = 0
KSB1 131454Z 27005KT 00/M11 A303 RMK A01 T00041105  RH  044%=      5-min Rain = 0
KSB1 131455Z 27006KT 01/M11 A303 RMK A01 T00051105  RH  044%=      5-min Rain = 0
KSB1 131456Z 26006KT 01/M10 A303 RMK A01 T00071104  RH  043%=      5-min Rain = 0
KSB1 131457Z 26006KT 01/M10 A303 RMK A01 T00091104  RH  043%=      5-min Rain = 0
KSB1 131458Z 27006KT 01/M11 A303 RMK A01 T00111105  RH  042%=      5-min Rain = 0
KSB1 131459Z 27006KT 01/M11 A303 RMK A01 T00131106  RH  041%=      5-min Rain = 0
KSB1 131500Z 27006KT 01/M11 A303 RMK A01 T00141106  RH  041%=      5-min Rain = 0
KSB1 131501Z 26006KT 02/M11 A303 RMK A01 T00151106  RH  040%=      5-min Rain = 0
KSB1 131502Z 26006KT 02/M11 A303 RMK A01 T00161106  RH  040%=      5-min Rain = 0
KSB1 131503Z 26004KT 02/M11 A303 RMK A01 T00171106  RH  040%=      5-min Rain = 0
KSB1 131504Z 27006KT 02/M11 A303 RMK A01 T00171106  RH  040%=      5-min Rain = 0
KSB1 131505Z 27006KT 02/M11 A303 RMK A01 T00171107  RH  039%=      5-min Rain = 0
KSB1 131506Z 28006KT 02/M11 A303 RMK A01 T00181106  RH  039%=      5-min Rain = 0
KSB1 131507Z 28005KT 02/M11 A303 RMK A01 T00181106  RH  039%=      5-min Rain = 0
KSB1 131508Z 27005KT 02/M11 A303 RMK A01 T00181106  RH  039%=      5-min Rain = 0
KSB1 131509Z 27004KT 02/M11 A303 RMK A01 T00191105  RH  039%=      5-min Rain = 0
KSB1 131510Z 25005KT 02/M11 A303 RMK A01 T00201105  RH  039%=      5-min Rain = 0
KSB1 131511Z 26004KT 02/M11 A303 RMK A01 T00211106  RH  038%=      5-min Rain = 0
KSB1 131512Z 28005KT 02/M11 A303 RMK A01 T00221106  RH  038%=      5-min Rain = 0
KSB1 131513Z 28005KT 02/M11 A303 RMK A01 T00231106  RH  038%=      5-min Rain = 0
KSB1 131514Z 28004KT 03/M11 A303 RMK A01 T00251106  RH  037%=      5-min Rain = 0
KSB1 131515Z 26004KT 03/M11 A303 RMK A01 T00261106  RH  037%=      5-min Rain = 0
KSB1 131516Z 25004KT 03/M11 A303 RMK A01 T00271105  RH  037%=      5-min Rain = 0
KSB1 131517Z 26004KT 03/M10 A303 RMK A01 T00281104  RH  037%=      5-min Rain = 0
KSB1 131518Z 26004KT 03/M10 A303 RMK A01 T00291104  RH  037%=      5-min Rain = 0
KSB1 131519Z 27004KT 03/M11 A303 RMK A01 T00291105  RH  037%=      5-min Rain = 0
KSB1 131520Z 26004KT 03/M11 A303 RMK A01 T00291105  RH  036%=      5-min Rain = 0
KSB1 131521Z 24003KT 03/M11 A303 RMK A01 T00301105  RH  036%=      5-min Rain = 0
KSB1 131522Z 24004KT 03/M10 A303 RMK A01 T00311104  RH  036%=      5-min Rain = 0
KSB1 131523Z 25004KT 03/M10 A303 RMK A01 T00311103  RH  037%=      5-min Rain = 0
KSB1 131524Z 26004KT 03/M11 A303 RMK A01 T00311105  RH  036%=      5-min Rain = 0
KSB1 131525Z 24004KT 03/M11 A303 RMK A01 T00311105  RH  036%=      5-min Rain = 0
KSB1 131526Z 25003KT 03/M11 A3031 RMK A01 T00311105  RH  036%=      5-min Rain = 0
KSB1 131527Z 24004KT 03/M11 A3031 RMK A01 T00311105  RH  036%=      5-min Rain = 0
KSB1 131528Z 23004KT 03/M10 A3031 RMK A01 T00321104  RH  036%=      5-min Rain = 0
KSB1 131529Z 24004KT 03/M10 A3031 RMK A01 T00321104  RH  036%=      5-min Rain = 0
KSB1 131530Z 25004KT 03/M10 A3031 RMK A01 T00321104  RH  036%=      5-min Rain = 0
KSB1 131531Z 24004KT 03/M10 A3031 RMK A01 T00321104  RH  036%=      5-min Rain = 0
KSB1 131532Z 24003KT 03/M10 A3031 RMK A01 T00321104  RH  036%=      5-min Rain = 0
KSB1 131533Z 24004KT 03/M11 A3031 RMK A01 T00321105  RH  036%=      5-min Rain = 0
KSB1 131534Z 25004KT 03/M10 A3031 RMK A01 T00321104  RH  036%=      5-min Rain = 0
KSB1 131535Z 25004KT 03/M10 A3031 RMK A01 T00341102  RH  036%=      5-min Rain = 0
KSB1 131536Z 24005KT 04/M10 A3031 RMK A01 T00351102  RH  036%=      5-min Rain = 0
KSB1 131537Z 23004KT 04/M10 A3031 RMK A01 T00361102  RH  035%=      5-min Rain = 0
KSB1 131538Z 23005KT 04/M10 A3031 RMK A01 T00371101  RH  036%=      5-min Rain = 0
KSB1 131539Z 23005KT 04/M10 A3031 RMK A01 T00381101  RH  035%=      5-min Rain = 0
KSB1 131540Z 24005KT 04/M10 A3031 RMK A01 T00381100  RH  036%=      5-min Rain = 0
KSB1 131541Z 24005KT 04/M10 A3031 RMK A01 T00391101  RH  035%=      5-min Rain = 0
KSB1 131542Z 25005KT 04/M10 A3031 RMK A01 T00391103  RH  035%=      5-min Rain = 0
KSB1 131543Z 25005KT 04/M10 A3031 RMK A01 T00391103  RH  035%=      5-min Rain = 0
KSB1 131544Z 23005KT 04/M10 A3031 RMK A01 T00401103  RH  034%=      5-min Rain = 0
KSB1 131545Z 23005KT 04/M10 A3031 RMK A01 T00401104  RH  034%=      5-min Rain = 0
KSB1 131546Z 23005KT 04/M11 A3031 RMK A01 T00401105  RH  034%=      5-min Rain = 0
KSB1 131547Z 22005KT 04/M10 A3031 RMK A01 T00411103  RH  034%=      5-min Rain = 0
KSB1 131548Z 23005KT 04/M10 A3031 RMK A01 T00421102  RH  034%=      5-min Rain = 0
KSB1 131549Z 24002KT 04/M10 A3031 RMK A01 T00421103  RH  034%=      5-min Rain = 0
KSB1 131550Z 22002KT 04/M10 A3031 RMK A01 T00421103  RH  034%=      5-min Rain = 0
KSB1 131551Z 25003KT 04/M10 A3031 RMK A01 T00421103  RH  034%=      5-min Rain = 0
KSB1 131552Z 24002KT 04/M10 A3031 RMK A01 T00421104  RH  034%=      5-min Rain = 0
KSB1 131553Z 25002KT 04/M11 A3031 RMK A01 T00421105  RH  033%=      5-min Rain = 0
KSB1 131554Z 24003KT 04/M11 A3031 RMK A01 T00421105  RH  033%=      5-min Rain = 0
KSB1 131555Z 24003KT 04/M10 A3031 RMK A01 T00421104  RH  034%=      5-min Rain = 0
KSB1 131556Z 23003KT 04/M10 A3031 RMK A01 T00431103  RH  034%=      5-min Rain = 0
KSB1 131557Z 24003KT 04/M10 A3031 RMK A01 T00431104  RH  033%=      5-min Rain = 0
KSB1 131558Z 23003KT 04/M10 A3031 RMK A01 T00431104  RH  033%=      5-min Rain = 0
KSB1 131559Z 21002KT 04/M10 A3031 RMK A01 T00431104  RH  033%=      5-min Rain = 0
KSB1 131600Z 21001KT 05/M10 A3031 RMK A01 T00451103  RH  033%=      5-min Rain = 0
KSB1 131601Z 00000KT 05/M10 A3031 RMK A01 T00471101  RH  033%=      5-min Rain = 0
KSB1 131602Z 18000KT 05/M10 A3031 RMK A01 T00491102  RH  033%=      5-min Rain = 0
KSB1 131603Z 18003KT 05/M10 A3031 RMK A01 T00501101  RH  032%=      5-min Rain = 0
KSB1 131604Z 19001KT 05/M10 A3031 RMK A01 T00511103  RH  032%=      5-min Rain = 0
KSB1 131605Z 15001KT 05/M10 A3031 RMK A01 T00521103  RH  032%=      5-min Rain = 0
KSB1 131606Z 16001KT 06/M10 A3031 RMK A01 T00551101  RH  031%=      5-min Rain = 0
KSB1 131607Z 15001KT 06/M10 A3031 RMK A01 T00581101  RH  031%=      5-min Rain = 0
KSB1 131608Z 13002KT 06/M10 A3031 RMK A01 T00601100  RH  031%=      5-min Rain = 0
KSB1 131609Z 13002KT 06/M10 A3031 RMK A01 T00621100  RH  030%=      5-min Rain = 0
KSB1 131610Z 15001KT 06/M10 A3031 RMK A01 T00631101  RH  030%=      5-min Rain = 0
KSB1 131611Z 16000KT 06/M10 A3031 RMK A01 T00641102  RH  029%=      5-min Rain = 0
KSB1 131612Z 04000KT 07/M10 A3032 RMK A01 T00651103  RH  029%=      5-min Rain = 0
KSB1 131613Z 03000KT 06/M10 A3032 RMK A01 T00621104  RH  029%=      5-min Rain = 0
KSB1 131614Z 17001KT 06/M10 A3032 RMK A01 T00611103  RH  030%=      5-min Rain = 0
KSB1 131615Z 18003KT 06/M10 A3032 RMK A01 T00611101  RH  030%=      5-min Rain = 0
KSB1 131616Z 18003KT 06/M10 A3032 RMK A01 T00601103  RH  030%=      5-min Rain = 0
KSB1 131617Z 16002KT 06/M10 A3032 RMK A01 T00581104  RH  030%=      5-min Rain = 0
KSB1 131618Z 16002KT 06/M10 A3032 RMK A01 T00591103  RH  030%=      5-min Rain = 0
KSB1 131619Z 18002KT 06/M10 A3032 RMK A01 T00601102  RH  030%=      5-min Rain = 0
KSB1 131620Z 17002KT 06/M10 A3032 RMK A01 T00611101  RH  030%=      5-min Rain = 0
KSB1 131621Z 15002KT 06/M10 A3032 RMK A01 T00621101  RH  030%=      5-min Rain = 0
KSB1 131622Z 17003KT 06/M10 A3032 RMK A01 T00631100  RH  030%=      5-min Rain = 0
KSB1 131623Z 17004KT 07/M10 A3032 RMK A01 T00651098  RH  030%=      5-min Rain = 0
KSB1 131624Z 15004KT 06/M10 A3032 RMK A01 T00641100  RH  030%=      5-min Rain = 0
KSB1 131625Z 16004KT 06/M10 A3032 RMK A01 T00641099  RH  030%=      5-min Rain = 0
KSB1 131626Z 16003KT 07/M10 A3032 RMK A01 T00651098  RH  030%=      5-min Rain = 0
KSB1 131627Z 15003KT 07/M10 A3032 RMK A01 T00661099  RH  030%=      5-min Rain = 0
KSB1 131628Z 16004KT 07/M10 A3032 RMK A01 T00661100  RH  029%=      5-min Rain = 0
KSB1 131629Z 17003KT 07/M10 A3032 RMK A01 T00661100  RH  029%=      5-min Rain = 0
KSB1 131630Z 15003KT 07/M10 A3032 RMK A01 T00651101  RH  029%=      5-min Rain = 0
KSB1 131631Z 15004KT 07/M10 A3032 RMK A01 T00661099  RH  030%=      5-min Rain = 0
KSB1 131632Z 15004KT 07/M10 A3032 RMK A01 T00681097  RH  030%=      5-min Rain = 0
KSB1 131633Z 15005KT 07/M10 A3032 RMK A01 T00691098  RH  029%=      5-min Rain = 0
KSB1 131634Z 14004KT 07/M10 A3032 RMK A01 T00691098  RH  029%=      5-min Rain = 0
KSB1 131635Z 13004KT 07/M10 A3032 RMK A01 T00681099  RH  029%=      5-min Rain = 0
KSB1 131636Z 12004KT 07/M10 A3032 RMK A01 T00661100  RH  029%=      5-min Rain = 0
KSB1 131637Z 13003KT 07/M10 A3032 RMK A01 T00661097  RH  030%=      5-min Rain = 0
KSB1 131638Z 13004KT 07/M10 A3032 RMK A01 T00681097  RH  030%=      5-min Rain = 0
KSB1 131639Z 11004KT 07/M10 A3032 RMK A01 T00671099  RH  029%=      5-min Rain = 0
KSB1 131640Z 10003KT 07/M10 A3032 RMK A01 T00681097  RH  030%=      5-min Rain = 0
KSB1 131641Z 12003KT 07/M10 A3032 RMK A01 T00701095  RH  030%=      5-min Rain = 0
KSB1 131642Z 14004KT 07/M10 A3032 RMK A01 T00721097  RH  029%=      5-min Rain = 0
KSB1 131643Z 14003KT 08/M10 A3032 RMK A01 T00761096  RH  028%=      5-min Rain = 0
KSB1 131644Z 14002KT 08/M10 A3032 RMK A01 T00781099  RH  027%=      5-min Rain = 0
KSB1 131645Z 11004KT 08/M10 A3032 RMK A01 T00781101  RH  027%=      5-min Rain = 0
KSB1 131646Z 10001KT 08/M10 A3032 RMK A01 T00771102  RH  027%=      5-min Rain = 0
KSB1 131647Z 10002KT 08/M10 A3032 RMK A01 T00761103  RH  027%=      5-min Rain = 0
KSB1 131648Z 11002KT 08/M10 A3032 RMK A01 T00761102  RH  027%=      5-min Rain = 0
KSB1 131649Z 07001KT 08/M10 A3032 RMK A01 T00771102  RH  027%=      5-min Rain = 0
KSB1 131650Z 02000KT 08/M10 A3032 RMK A01 T00771102  RH  027%=      5-min Rain = 0
KSB1 131651Z 30002KT 08/M10 A3032 RMK A01 T00771101  RH  027%=      5-min Rain = 0
KSB1 131652Z 22004KT 08/M10 A3032 RMK A01 T00781101  RH  027%=      5-min Rain = 0
KSB1 131653Z 23002KT 08/M10 A3032 RMK A01 T00801100  RH  027%=      5-min Rain = 0
KSB1 131654Z 27005KT 08/M11 A3032 RMK A01 T00831105  RH  025%=      5-min Rain = 0
KSB1 131655Z 29007KT 08/M11 A3032 RMK A01 T00831112  RH  024%=      5-min Rain = 0
KSB1 131656Z 26009KT 08/M11 A3032 RMK A01 T00841114  RH  023%=      5-min Rain = 0
KSB1 131657Z 28010KT 08/M11 A3032 RMK A01 T00841114  RH  023%=      5-min Rain = 0
KSB1 131658Z 28009KT 09/M12 A3032 RMK A01 T00851116  RH  023%=      5-min Rain = 0
KSB1 131659Z 27009KT 09/M12 A3032 RMK A01 T00851116  RH  023%=      5-min Rain = 0
KSB1 131700Z 28011KT 09/M12 A3032 RMK A01 T00851116  RH  023%=      5-min Rain = 0
KSB1 131701Z 29011KT 09/M12 A3032 RMK A01 T00851117  RH  023%=      5-min Rain = 0
KSB1 131702Z 29010KT 08/M12 A3032 RMK A01 T00841116  RH  023%=      5-min Rain = 0
KSB1 131703Z 28009KT 08/M12 A3032 RMK A01 T00841116  RH  023%=      5-min Rain = 0
KSB1 131704Z 28009KT 09/M12 A3032 RMK A01 T00851115  RH  023%=      5-min Rain = 0
KSB1 131705Z 28010KT 09/M12 A3032 RMK A01 T00861118  RH  022%=      5-min Rain = 0
KSB1 131706Z 28011KT 09/M12 A3033 RMK A01 T00861118  RH  022%=      5-min Rain = 0
KSB1 131707Z 27009KT 09/M12 A3033 RMK A01 T00861118  RH  022%=      5-min Rain = 0
KSB1 131708Z 28008KT 09/M12 A3033 RMK A01 T00851121  RH  022%=      5-min Rain = 0
KSB1 131709Z 28011KT 09/M12 A3032 RMK A01 T00861120  RH  022%=      5-min Rain = 0
KSB1 131710Z 29009KT 09/M12 A3032 RMK A01 T00861119  RH  022%=      5-min Rain = 0
KSB1 131711Z 28010KT 09/M12 A3032 RMK A01 T00881118  RH  022%=      5-min Rain = 0
KSB1 131712Z 28010KT 09/M12 A3032 RMK A01 T00871119  RH  022%=      5-min Rain = 0
KSB1 131713Z 27012KT 09/M12 A3032 RMK A01 T00861119  RH  022%=      5-min Rain = 0
KSB1 131714Z 27010KT 09/M12 A3032 RMK A01 T00871119  RH  022%=      5-min Rain = 0
KSB1 131715Z 26009KT 09/M12 A3032 RMK A01 T00881119  RH  022%=      5-min Rain = 0
KSB1 131716Z 27009KT 09/M12 A3032 RMK A01 T00891117  RH  022%=      5-min Rain = 0
KSB1 131717Z 27006KT 09/M12 A3032 RMK A01 T00881118  RH  022%=      5-min Rain = 0
KSB1 131718Z 28010KT 09/M12 A3032 RMK A01 T00901116  RH  022%=      5-min Rain = 0
KSB1 131719Z 28011KT 09/M12 A3032 RMK A01 T00901120  RH  021%=      5-min Rain = 0
KSB1 131720Z 28009KT 09/M12 A3032 RMK A01 T00881119  RH  022%=      5-min Rain = 0
KSB1 131721Z 27008KT 09/M12 A3032 RMK A01 T00881116  RH  022%=      5-min Rain = 0
KSB1 131722Z 27009KT 09/M12 A3032 RMK A01 T00891116  RH  022%=      5-min Rain = 0
KSB1 131723Z 28009KT 09/M12 A3032 RMK A01 T00911116  RH  022%=      5-min Rain = 0
KSB1 131724Z 27007KT 09/M12 A3032 RMK A01 T00921115  RH  022%=      5-min Rain = 0
KSB1 131725Z 26009KT 09/M11 A3032 RMK A01 T00931114  RH  022%=      5-min Rain = 0
KSB1 131726Z 26012KT 09/M12 A3032 RMK A01 T00931115  RH  022%=      5-min Rain = 0
KSB1 131727Z 28009KT 09/M12 A3032 RMK A01 T00921117  RH  022%=      5-min Rain = 0
KSB1 131728Z 28009KT 09/M12 A3032 RMK A01 T00921119  RH  021%=      5-min Rain = 0
KSB1 131729Z 30008KT 09/M12 A3032 RMK A01 T00911119  RH  021%=      5-min Rain = 0
KSB1 131730Z 31009KT 09/M11 A3032 RMK A01 T00921113  RH  022%=      5-min Rain = 0
KSB1 131731Z 29010KT 09/M11 A3032 RMK A01 T00931111  RH  022%=      5-min Rain = 0
KSB1 131732Z 28010KT 09/M11 A3031 RMK A01 T00931114  RH  022%=      5-min Rain = 0
KSB1 131733Z 28010KT 09/M12 A3031 RMK A01 T00931116  RH  022%=      5-min Rain = 0
KSB1 131734Z 30008KT 09/M11 A3031 RMK A01 T00931114  RH  022%=      5-min Rain = 0
KSB1 131735Z 30009KT 10/M11 A3031 RMK A01 T00951111  RH  022%=      5-min Rain = 0
KSB1 131736Z 31009KT 09/M11 A3031 RMK A01 T00931112  RH  022%=      5-min Rain = 0
KSB1 131737Z 29007KT 09/M11 A3031 RMK A01 T00921112  RH  022%=      5-min Rain = 0
KSB1 131738Z 27008KT 09/M11 A3031 RMK A01 T00941114  RH  022%=      5-min Rain = 0
KSB1 131739Z 30008KT 09/M12 A3031 RMK A01 T00941115  RH  022%=      5-min Rain = 0
KSB1 131740Z 31009KT 10/M11 A3031 RMK A01 T00961112  RH  022%=      5-min Rain = 0
KSB1 131741Z 29008KT 10/M11 A3031 RMK A01 T00971112  RH  022%=      5-min Rain = 0
KSB1 131742Z 31009KT 10/M11 A3031 RMK A01 T00961112  RH  022%=      5-min Rain = 0
KSB1 131743Z 31011KT 10/M11 A3031 RMK A01 T00951112  RH  022%=      5-min Rain = 0
KSB1 131744Z 32012KT 09/M11 A3031 RMK A01 T00921112  RH  022%=      5-min Rain = 0
KSB1 131745Z 32012KT 09/M11 A3031 RMK A01 T00901112  RH  023%=      5-min Rain = 0
KSB1 131746Z 31013KT 09/M11 A3031 RMK A01 T00891111  RH  023%=      5-min Rain = 0
KSB1 131747Z 31015KT 09/M11 A303 RMK A01 T00891112  RH  023%=      5-min Rain = 0
KSB1 131748Z 31013KT 09/M11 A303 RMK A01 T00881114  RH  023%=      5-min Rain = 0
KSB1 131749Z 31011KT 09/M12 A303 RMK A01 T00891115  RH  022%=      5-min Rain = 0
KSB1 131750Z 30012KT 09/M12 A303 RMK A01 T00901117  RH  022%=      5-min Rain = 0
KSB1 131751Z 30010KT 09/M12 A303 RMK A01 T00901118  RH  022%=      5-min Rain = 0
KSB1 131752Z 30012KT 09/M12 A303 RMK A01 T00911117  RH  022%=      5-min Rain = 0
KSB1 131753Z 28011G16KT 09/M12 A303 RMK A01 T00931117  RH  021%=      5-min Rain = 0
KSB1 131754Z 27013KT 10/M12 A303 RMK A01 T00971118  RH  021%=      5-min Rain = 0
KSB1 131755Z 29012KT 10/M12 A303 RMK A01 T00981118  RH  020%=      5-min Rain = 0
KSB1 131756Z 29010KT 10/M12 A303 RMK A01 T00981117  RH  021%=      5-min Rain = 0
KSB1 131757Z 30014KT 10/M12 A3029 RMK A01 T00991118  RH  020%=      5-min Rain = 0
KSB1 131758Z 29013G18KT 10/M12 A3029 RMK A01 T00971121  RH  020%=      5-min Rain = 0
KSB1 131759Z 28012KT 10/M12 A3029 RMK A01 T00951121  RH  020%=      5-min Rain = 0
KSB1 131800Z 30013KT 10/M12 A3029 RMK A01 T00951118  RH  021%=      5-min Rain = 0
KSB1 131801Z 29013KT 10/M12 A3029 RMK A01 T00951119  RH  021%=      5-min Rain = 0
KSB1 131802Z 29011KT 09/M12 A3029 RMK A01 T00931117  RH  021%=      5-min Rain = 0
KSB1 131803Z 30012KT 09/M12 A3029 RMK A01 T00931116  RH  022%=      5-min Rain = 0
KSB1 131804Z 29014KT 09/M12 A3029 RMK A01 T00941115  RH  022%=      5-min Rain = 0
KSB1 131805Z 29012KT 09/M12 A3029 RMK A01 T00941115  RH  022%=      5-min Rain = 0
KSB1 131806Z 29014KT 09/M12 A3029 RMK A01 T00941117  RH  021%=      5-min Rain = 0
KSB1 131807Z 30012KT 09/M12 A3029 RMK A01 T00931117  RH  021%=      5-min Rain = 0
KSB1 131808Z 29013KT 09/M12 A3029 RMK A01 T00921117  RH  022%=      5-min Rain = 0
KSB1 131809Z 30014KT 09/M12 A3029 RMK A01 T00911117  RH  022%=      5-min Rain = 0
KSB1 131810Z 30013KT 09/M12 A3029 RMK A01 T00911118  RH  022%=      5-min Rain = 0
KSB1 131811Z 30012KT 09/M12 A3029 RMK A01 T00921116  RH  022%=      5-min Rain = 0
KSB1 131812Z 30010KT 09/M11 A3029 RMK A01 T00931114  RH  022%=      5-min Rain = 0
KSB1 131813Z 30013KT 09/M12 A3029 RMK A01 T00941115  RH  022%=      5-min Rain = 0
KSB1 131814Z 31012KT 09/M12 A3029 RMK A01 T00941119  RH  021%=      5-min Rain = 0
KSB1 131815Z 30013KT 10/M12 A3029 RMK A01 T00951119  RH  021%=      5-min Rain = 0
KSB1 131816Z 29011KT 10/M12 A3029 RMK A01 T00951119  RH  021%=      5-min Rain = 0
KSB1 131817Z 28011KT 10/M12 A3029 RMK A01 T00951117  RH  021%=      5-min Rain = 0
KSB1 131818Z 29012KT 10/M12 A3028 RMK A01 T00981115  RH  021%=      5-min Rain = 0
KSB1 131819Z 29012KT 10/M12 A3028 RMK A01 T00981117  RH  021%=      5-min Rain = 0
KSB1 131820Z 30011KT 10/M12 A3028 RMK A01 T00981118  RH  020%=      5-min Rain = 0
KSB1 131821Z 29012KT 10/M12 A3028 RMK A01 T00981118  RH  021%=      5-min Rain = 0
KSB1 131822Z 30012KT 10/M12 A3028 RMK A01 T00981117  RH  021%=      5-min Rain = 0
KSB1 131823Z 28013KT 10/M12 A3028 RMK A01 T00981118  RH  021%=      5-min Rain = 0
KSB1 131824Z 28013G18KT 10/M12 A3028 RMK A01 T00971124  RH  020%=      5-min Rain = 0
KSB1 131825Z 29012KT 10/M12 A3028 RMK A01 T00961120  RH  020%=      5-min Rain = 0
KSB1 131826Z 30011KT 10/M12 A3028 RMK A01 T00981116  RH  021%=      5-min Rain = 0
KSB1 131827Z 29014KT 10/M12 A3028 RMK A01 T01001115  RH  021%=      5-min Rain = 0
KSB1 131828Z 30014KT 10/M12 A3028 RMK A01 T00971118  RH  021%=      5-min Rain = 0
KSB1 131829Z 29015KT 10/M12 A3027 RMK A01 T00961117  RH  021%=      5-min Rain = 0
KSB1 131830Z 29013KT 10/M12 A3027 RMK A01 T00961118  RH  021%=      5-min Rain = 0
KSB1 131831Z 30013KT 10/M12 A3027 RMK A01 T00971116  RH  021%=      5-min Rain = 0
KSB1 131832Z 30013KT 10/M12 A3027 RMK A01 T00981117  RH  021%=      5-min Rain = 0
KSB1 131833Z 30013KT 10/M12 A3027 RMK A01 T00971118  RH  021%=      5-min Rain = 0
KSB1 131834Z 31011KT 10/M12 A3027 RMK A01 T00961120  RH  020%=      5-min Rain = 0
KSB1 131835Z 30011KT 10/M12 A3027 RMK A01 T00981116  RH  021%=      5-min Rain = 0
KSB1 131836Z 30011KT 10/M12 A3027 RMK A01 T01011115  RH  021%=      5-min Rain = 0
KSB1 131837Z 29011KT 10/M12 A3027 RMK A01 T01031115  RH  020%=      5-min Rain = 0
KSB1 131838Z 29011KT 10/M12 A3027 RMK A01 T01031117  RH  020%=      5-min Rain = 0
KSB1 131839Z 30012KT 11/M12 A3027 RMK A01 T01051115  RH  020%=      5-min Rain = 0
KSB1 131840Z 31014KT 11/M12 A3027 RMK A01 T01061115  RH  020%=      5-min Rain = 0
KSB1 131841Z 31013KT 10/M12 A3027 RMK A01 T01031119  RH  020%=      5-min Rain = 0
KSB1 131842Z 31013KT 10/M12 A3027 RMK A01 T01001119  RH  020%=      5-min Rain = 0
KSB1 131843Z 30013KT 10/M12 A3027 RMK A01 T00981119  RH  020%=      5-min Rain = 0
KSB1 131844Z 30013G18KT 10/M12 A3026 RMK A01 T00981119  RH  020%=      5-min Rain = 0
KSB1 131845Z 31012KT 10/M12 A3026 RMK A01 T00991119  RH  020%=      5-min Rain = 0
KSB1 131846Z 29013KT 10/M12 A3026 RMK A01 T00991120  RH  020%=      5-min Rain = 0
KSB1 131847Z 29014KT 10/M12 A3026 RMK A01 T01001119  RH  020%=      5-min Rain = 0
KSB1 131848Z 31013KT 10/M12 A3026 RMK A01 T01001118  RH  020%=      5-min Rain = 0
KSB1 131849Z 31013KT 10/M12 A3026 RMK A01 T00991118  RH  020%=      5-min Rain = 0
KSB1 131850Z 31013KT 10/M12 A3026 RMK A01 T00991118  RH  020%=      5-min Rain = 0
KSB1 131851Z 31014KT 10/M12 A3026 RMK A01 T01001119  RH  020%=      5-min Rain = 0
KSB1 131852Z 30012KT 10/M12 A3026 RMK A01 T00991120  RH  020%=      5-min Rain = 0
KSB1 131853Z 31012KT 10/M12 A3026 RMK A01 T00991119  RH  020%=      5-min Rain = 0
KSB1 131854Z 32012KT 10/M12 A3026 RMK A01 T00991119  RH  020%=      5-min Rain = 0
KSB1 131855Z 31013KT 10/M12 A3026 RMK A01 T00981120  RH  020%=      5-min Rain = 0
KSB1 131856Z 31012KT 10/M12 A3026 RMK A01 T00981121  RH  020%=      5-min Rain = 0
KSB1 131857Z 31013KT 10/M12 A3025 RMK A01 T00991121  RH  020%=      5-min Rain = 0
KSB1 131858Z 31013KT 10/M12 A3025 RMK A01 T01011121  RH  020%=      5-min Rain = 0
KSB1 131859Z 32011KT 10/M12 A3025 RMK A01 T01021121  RH  020%=      5-min Rain = 0
KSB1 131900Z 31011KT 10/M12 A3025 RMK A01 T01021120  RH  020%=      5-min Rain = 0
KSB1 131901Z 30013KT 10/M12 A3025 RMK A01 T01041120  RH  019%=      5-min Rain = 0
KSB1 131902Z 29012KT 10/M12 A3025 RMK A01 T01031123  RH  019%=      5-min Rain = 0
KSB1 131903Z 31011KT 10/M13 A3025 RMK A01 T01011126  RH  019%=      5-min Rain = 0
KSB1 131904Z 31011KT 10/M13 A3025 RMK A01 T00991125  RH  019%=      5-min Rain = 0
KSB1 131905Z 30011KT 10/M12 A3025 RMK A01 T00991122  RH  020%=      5-min Rain = 0
KSB1 131906Z 30011KT 10/M12 A3025 RMK A01 T01011120  RH  020%=      5-min Rain = 0
KSB1 131907Z 30010KT 11/M12 A3025 RMK A01 T01051122  RH  019%=      5-min Rain = 0
KSB1 131908Z 29010KT 10/M12 A3025 RMK A01 T01041124  RH  019%=      5-min Rain = 0
KSB1 131909Z 29011KT 10/M12 A3025 RMK A01 T01041124  RH  019%=      5-min Rain = 0
KSB1 131910Z 29011KT 11/M13 A3025 RMK A01 T01051126  RH  018%=      5-min Rain = 0
KSB1 131911Z 30008KT 10/M13 A3025 RMK A01 T01031129  RH  018%=      5-min Rain = 0
KSB1 131912Z 32009KT 10/M12 A3025 RMK A01 T01041124  RH  019%=      5-min Rain = 0
KSB1 131913Z 30012KT 11/M12 A3024 RMK A01 T01061123  RH  019%=      5-min Rain = 0
KSB1 131914Z 29011KT 11/M13 A3024 RMK A01 T01071127  RH  018%=      5-min Rain = 0
KSB1 131915Z 27010KT 11/M13 A3024 RMK A01 T01061129  RH  018%=      5-min Rain = 0
KSB1 131916Z 29013KT 11/M13 A3024 RMK A01 T01051133  RH  017%=      5-min Rain = 0
KSB1 131917Z 28014KT 11/M14 A3024 RMK A01 T01071140  RH  016%=      5-min Rain = 0
KSB1 131918Z 28012KT 11/M14 A3024 RMK A01 T01061144  RH  016%=      5-min Rain = 0
KSB1 131919Z 28014KT 10/M15 A3024 RMK A01 T01041147  RH  016%=      5-min Rain = 0
KSB1 131920Z 28013KT 11/M15 A3024 RMK A01 T01051147  RH  015%=      5-min Rain = 0
KSB1 131921Z 29012KT 11/M14 A3024 RMK A01 T01061143  RH  016%=      5-min Rain = 0
KSB1 131922Z 30012KT 11/M13 A3023 RMK A01 T01071134  RH  017%=      5-min Rain = 0
KSB1 131923Z 28013KT 11/M13 A3023 RMK A01 T01071129  RH  018%=      5-min Rain = 0
KSB1 131924Z 27013KT 11/M14 A3023 RMK A01 T01091137  RH  016%=      5-min Rain = 0
KSB1 131925Z 27009KT 11/M14 A3023 RMK A01 T01091140  RH  016%=      5-min Rain = 0
KSB1 131926Z 28011G17KT 11/M14 A3023 RMK A01 T01091141  RH  016%=      5-min Rain = 0
KSB1 131927Z 29013KT 11/M14 A3023 RMK A01 T01101138  RH  016%=      5-min Rain = 0
KSB1 131928Z 29013KT 11/M14 A3023 RMK A01 T01081138  RH  016%=      5-min Rain = 0
KSB1 131929Z 29014KT 11/M14 A3023 RMK A01 T01091140  RH  016%=      5-min Rain = 0
KSB1 131930Z 29013KT 11/M14 A3023 RMK A01 T01081135  RH  017%=      5-min Rain = 0
KSB1 131931Z 31012KT 11/M13 A3023 RMK A01 T01101130  RH  017%=      5-min Rain = 0
KSB1 131932Z 31012KT 11/M13 A3023 RMK A01 T01101130  RH  017%=      5-min Rain = 0
KSB1 131933Z 30015KT 11/M13 A3023 RMK A01 T01101130  RH  017%=      5-min Rain = 0
KSB1 131934Z 30014KT 11/M13 A3023 RMK A01 T01091131  RH  017%=      5-min Rain = 0
KSB1 131935Z 31012KT 11/M13 A3023 RMK A01 T01081130  RH  017%=      5-min Rain = 0
KSB1 131936Z 31013KT 11/M13 A3023 RMK A01 T01081129  RH  018%=      5-min Rain = 0
KSB1 131937Z 30013KT 11/M13 A3023 RMK A01 T01081129  RH  018%=      5-min Rain = 0
KSB1 131938Z 30015KT 11/M13 A3022 RMK A01 T01111128  RH  017%=      5-min Rain = 0
KSB1 131939Z 29013KT 11/M13 A3022 RMK A01 T01101132  RH  017%=      5-min Rain = 0
KSB1 131940Z 30013KT 11/M13 A3022 RMK A01 T01101133  RH  017%=      5-min Rain = 0
KSB1 131941Z 29013KT 11/M13 A3022 RMK A01 T01101133  RH  017%=      5-min Rain = 0
KSB1 131942Z 28015KT 11/M13 A3022 RMK A01 T01101133  RH  017%=      5-min Rain = 0
KSB1 131943Z 29012KT 11/M13 A3022 RMK A01 T01101134  RH  017%=      5-min Rain = 0
KSB1 131944Z 30012KT 11/M13 A3022 RMK A01 T01121134  RH  017%=      5-min Rain = 0
KSB1 131945Z 29013KT 11/M13 A3022 RMK A01 T01121134  RH  016%=      5-min Rain = 0
KSB1 131946Z 29014KT 11/M14 A3022 RMK A01 T01101135  RH  016%=      5-min Rain = 0
KSB1 131947Z 28014KT 11/M14 A3022 RMK A01 T01071135  RH  017%=      5-min Rain = 0
KSB1 131948Z 30014KT 11/M14 A3022 RMK A01 T01061135  RH  017%=      5-min Rain = 0
KSB1 131949Z 29013KT 11/M14 A3022 RMK A01 T01071136  RH  017%=      5-min Rain = 0
KSB1 131950Z 30011KT 11/M13 A3021 RMK A01 T01081134  RH  017%=      5-min Rain = 0
KSB1 131951Z 29013KT 11/M13 A3021 RMK A01 T01111134  RH  017%=      5-min Rain = 0
KSB1 131952Z 29015KT 11/M13 A3021 RMK A01 T01121132  RH  017%=      5-min Rain = 0
KSB1 131953Z 29015KT 11/M13 A3021 RMK A01 T01121132  RH  017%=      5-min Rain = 0
KSB1 131954Z 29012KT 11/M14 A3021 RMK A01 T01101135  RH  016%=      5-min Rain = 0
KSB1 131955Z 28011KT 11/M13 A3021 RMK A01 T01111133  RH  017%=      5-min Rain = 0
KSB1 131956Z 27013KT 12/M13 A3021 RMK A01 T01181131  RH  016%=      5-min Rain = 0
KSB1 131957Z 26013KT 12/M14 A3021 RMK A01 T01191139  RH  015%=      5-min Rain = 0
KSB1 131958Z 27015KT 12/M14 A3021 RMK A01 T01191141  RH  015%=      5-min Rain = 0
KSB1 131959Z 26016KT 12/M15 A3021 RMK A01 T01151145  RH  015%=      5-min Rain = 0
KSB1 132000Z 27015KT 11/M15 A3021 RMK A01 T01141145  RH  015%=      5-min Rain = 0
KSB1 132001Z 26016G21KT 11/M15 A3021 RMK A01 T01121147  RH  015%=      5-min Rain = 0
KSB1 132002Z 27015KT 11/M15 A3021 RMK A01 T01121145  RH  015%=      5-min Rain = 0
KSB1 132003Z 26014KT 11/M14 A3021 RMK A01 T01131144  RH  015%=      5-min Rain = 0
KSB1 132004Z 26013KT 11/M14 A3021 RMK A01 T01141143  RH  015%=      5-min Rain = 0
KSB1 132005Z 27013KT 12/M14 A3021 RMK A01 T01161142  RH  015%=      5-min Rain = 0
KSB1 132006Z 26016KT 12/M14 A3021 RMK A01 T01161144  RH  015%=      5-min Rain = 0
KSB1 132007Z 27015KT 12/M15 A3021 RMK A01 T01151145  RH  015%=      5-min Rain = 0
KSB1 132008Z 27013KT 11/M15 A3021 RMK A01 T01141147  RH  014%=      5-min Rain = 0
KSB1 132009Z 28012KT 12/M15 A302 RMK A01 T01151146  RH  015%=      5-min Rain = 0
KSB1 132010Z 28014KT 12/M14 A302 RMK A01 T01181141  RH  015%=      5-min Rain = 0
KSB1 132011Z 28017KT 12/M14 A302 RMK A01 T01191141  RH  015%=      5-min Rain = 0
KSB1 132012Z 28016KT 12/M14 A302 RMK A01 T01171143  RH  015%=      5-min Rain = 0
KSB1 132013Z 28015KT 12/M14 A302 RMK A01 T01171143  RH  015%=      5-min Rain = 0
KSB1 132014Z 28014KT 12/M14 A302 RMK A01 T01171144  RH  015%=      5-min Rain = 0
KSB1 132015Z 27014KT 12/M14 A302 RMK A01 T01171144  RH  015%=      5-min Rain = 0
KSB1 132016Z 28017KT 12/M14 A302 RMK A01 T01181143  RH  015%=      5-min Rain = 0
KSB1 132017Z 27016KT 12/M14 A302 RMK A01 T01181141  RH  015%=      5-min Rain = 0
KSB1 132018Z 27015KT 12/M14 A302 RMK A01 T01181141  RH  015%=      5-min Rain = 0
KSB1 132019Z 28018KT 12/M14 A302 RMK A01 T01191140  RH  015%=      5-min Rain = 0
KSB1 132020Z 28019KT 12/M14 A302 RMK A01 T01191141  RH  015%=      5-min Rain = 0
KSB1 132021Z 27018KT 12/M14 A3019 RMK A01 T01171141  RH  015%=      5-min Rain = 0
KSB1 132022Z 27019KT 12/M14 A3019 RMK A01 T01171140  RH  015%=      5-min Rain = 0
KSB1 132023Z 27019KT 12/M14 A3019 RMK A01 T01151139  RH  015%=      5-min Rain = 0
KSB1 132024Z 27017KT 11/M14 A3019 RMK A01 T01141138  RH  016%=      5-min Rain = 0
KSB1 132025Z 27018KT 11/M14 A3019 RMK A01 T01141138  RH  016%=      5-min Rain = 0
KSB1 132026Z 27017KT 12/M14 A3019 RMK A01 T01151139  RH  015%=      5-min Rain = 0
KSB1 132027Z 27016KT 12/M14 A302 RMK A01 T01161139  RH  015%=      5-min Rain = 0
KSB1 132028Z 28015KT 12/M14 A3019 RMK A01 T01171138  RH  015%=      5-min Rain = 0
KSB1 132029Z 28016KT 12/M14 A302 RMK A01 T01181138  RH  015%=      5-min Rain = 0
KSB1 132030Z 27016KT 12/M14 A302 RMK A01 T01181139  RH  015%=      5-min Rain = 0
KSB1 132031Z 27014KT 12/M14 A302 RMK A01 T01161139  RH  015%=      5-min Rain = 0
KSB1 132032Z 25012KT 12/M13 A302 RMK A01 T01171134  RH  016%=      5-min Rain = 0
KSB1 132033Z 28010KT 12/M13 A302 RMK A01 T01221130  RH  016%=      5-min Rain = 0
KSB1 132034Z 28012KT 13/M13 A302 RMK A01 T01251130  RH  016%=      5-min Rain = 0
KSB1 132035Z 26014KT 12/M13 A302 RMK A01 T01241131  RH  016%=      5-min Rain = 0
KSB1 132036Z 27014KT 12/M13 A302 RMK A01 T01211130  RH  016%=      5-min Rain = 0
KSB1 132037Z 26012KT 12/M13 A302 RMK A01 T01191129  RH  016%=      5-min Rain = 0
KSB1 132038Z 27013KT 12/M13 A302 RMK A01 T01211127  RH  016%=      5-min Rain = 0
KSB1 132039Z 27013KT 12/M13 A302 RMK A01 T01211128  RH  016%=      5-min Rain = 0
KSB1 132040Z 27013KT 12/M13 A302 RMK A01 T01201127  RH  016%=      5-min Rain = 0
KSB1 132041Z 27010KT 12/M13 A302 RMK A01 T01211125  RH  017%=      5-min Rain = 0
KSB1 132042Z 28010KT 12/M13 A3019 RMK A01 T01231126  RH  016%=      5-min Rain = 0
KSB1 132043Z 27007KT 12/M13 A302 RMK A01 T01241127  RH  016%=      5-min Rain = 0
KSB1 132044Z 28010KT 13/M13 A302 RMK A01 T01271127  RH  016%=      5-min Rain = 0
KSB1 132045Z 27010KT 13/M13 A302 RMK A01 T01261130  RH  015%=      5-min Rain = 0
KSB1 132046Z 28011KT 13/M13 A302 RMK A01 T01251130  RH  016%=      5-min Rain = 0
KSB1 132047Z 28012G17KT 13/M13 A3019 RMK A01 T01251130  RH  016%=      5-min Rain = 0
KSB1 132048Z 29015KT 13/M13 A3019 RMK A01 T01261130  RH  015%=      5-min Rain = 0
KSB1 132049Z 28013KT 13/M13 A302 RMK A01 T01251132  RH  015%=      5-min Rain = 0
KSB1 132050Z 28014KT 12/M13 A302 RMK A01 T01231131  RH  016%=      5-min Rain = 0
KSB1 132051Z 27013KT 12/M13 A302 RMK A01 T01221132  RH  016%=      5-min Rain = 0
KSB1 132052Z 28011KT 12/M13 A302 RMK A01 T01211132  RH  016%=      5-min Rain = 0
KSB1 132053Z 29008KT 12/M13 A302 RMK A01 T01241130  RH  016%=      5-min Rain = 0
KSB1 132054Z 27007KT 12/M13 A302 RMK A01 T01241131  RH  016%=      5-min Rain = 0
KSB1 132055Z 27009KT 13/M13 A302 RMK A01 T01251128  RH  016%=      5-min Rain = 0
KSB1 132056Z 27008KT 13/M13 A302 RMK A01 T01261129  RH  016%=      5-min Rain = 0
KSB1 132057Z 28008KT 13/M13 A302 RMK A01 T01271128  RH  016%=      5-min Rain = 0
KSB1 132058Z 29008KT 13/M13 A302 RMK A01 T01291126  RH  016%=      5-min Rain = 0
KSB1 132059Z 28008KT 13/M13 A302 RMK A01 T01301127  RH  015%=      5-min Rain = 0
KSB1 132100Z 28009KT 13/M13 A302 RMK A01 T01291127  RH  016%=      5-min Rain = 0
KSB1 132101Z 28010KT 13/M13 A302 RMK A01 T01281125  RH  016%=      5-min Rain = 0
KSB1 132102Z 29009KT 13/M13 A302 RMK A01 T01271125  RH  016%=      5-min Rain = 0
KSB1 132103Z 29011KT 13/M12 A302 RMK A01 T01271124  RH  016%=      5-min Rain = 0
KSB1 132104Z 29011KT 13/M13 A3019 RMK A01 T01261125  RH  016%=      5-min Rain = 0
KSB1 132105Z 28010KT 12/M13 A3019 RMK A01 T01241126  RH  016%=      5-min Rain = 0
KSB1 132106Z 26008KT 12/M13 A3019 RMK A01 T01231128  RH  016%=      5-min Rain = 0
KSB1 132107Z 30008KT 12/M13 A3019 RMK A01 T01221127  RH  016%=      5-min Rain = 0
KSB1 132108Z 30011KT 12/M12 A3019 RMK A01 T01241123  RH  017%=      5-min Rain = 0
KSB1 132109Z 29013KT 12/M12 A3019 RMK A01 T01241122  RH  017%=      5-min Rain = 0
KSB1 132110Z 29011KT 13/M12 A3019 RMK A01 T01251121  RH  017%=      5-min Rain = 0
KSB1 132111Z 28009KT 12/M12 A3019 RMK A01 T01241124  RH  016%=      5-min Rain = 0
KSB1 132112Z 28010KT 12/M12 A3019 RMK A01 T01241124  RH  016%=      5-min Rain = 0
KSB1 132113Z 30006KT 13/M12 A3019 RMK A01 T01251123  RH  016%=      5-min Rain = 0
KSB1 132114Z 28009KT 13/M12 A3018 RMK A01 T01291120  RH  016%=      5-min Rain = 0
KSB1 132115Z 29009KT 13/M12 A3019 RMK A01 T01311122  RH  016%=      5-min Rain = 0
KSB1 132116Z 28009KT 13/M12 A3019 RMK A01 T01291123  RH  016%=      5-min Rain = 0
KSB1 132117Z 28012KT 13/M12 A3019 RMK A01 T01291123  RH  016%=      5-min Rain = 0
KSB1 132118Z 29012KT 13/M12 A3019 RMK A01 T01281124  RH  016%=      5-min Rain = 0
KSB1 132119Z 28010KT 13/M13 A3019 RMK A01 T01271126  RH  016%=      5-min Rain = 0
KSB1 132120Z 28010KT 13/M13 A3019 RMK A01 T01251126  RH  016%=      5-min Rain = 0
KSB1 132121Z 29009KT 13/M12 A3019 RMK A01 T01251123  RH  017%=      5-min Rain = 0
KSB1 132122Z 29008KT 13/M12 A3018 RMK A01 T01271121  RH  017%=      5-min Rain = 0
KSB1 132123Z 26009KT 13/M12 A3019 RMK A01 T01281123  RH  016%=      5-min Rain = 0
KSB1 132124Z 25010KT 13/M13 A3018 RMK A01 T01291125  RH  016%=      5-min Rain = 0
KSB1 132125Z 26011G17KT 13/M13 A3018 RMK A01 T01291125  RH  016%=      5-min Rain = 0
KSB1 132126Z 26009KT 13/M12 A3018 RMK A01 T01281124  RH  016%=      5-min Rain = 0
KSB1 132127Z 25008KT 13/M12 A3018 RMK A01 T01281122  RH  016%=      5-min Rain = 0
KSB1 132128Z 27008KT 13/M12 A3018 RMK A01 T01271123  RH  016%=      5-min Rain = 0
KSB1 132129Z 27007KT 13/M12 A3018 RMK A01 T01281120  RH  017%=      5-min Rain = 0
KSB1 132130Z 27010KT 13/M12 A3018 RMK A01 T01291120  RH  016%=      5-min Rain = 0
KSB1 132131Z 28013KT 13/M12 A3018 RMK A01 T01281123  RH  016%=      5-min Rain = 0
KSB1 132132Z 28012KT 13/M12 A3018 RMK A01 T01271123  RH  016%=      5-min Rain = 0
KSB1 132133Z 28010KT 13/M12 A3018 RMK A01 T01271124  RH  016%=      5-min Rain = 0
KSB1 132134Z 28012KT 13/M12 A3018 RMK A01 T01281122  RH  016%=      5-min Rain = 0
KSB1 132135Z 25009KT 13/M12 A3018 RMK A01 T01281121  RH  016%=      5-min Rain = 0
KSB1 132136Z 25008KT 13/M12 A3018 RMK A01 T01281120  RH  016%=      5-min Rain = 0
KSB1 132137Z 26007KT 13/M12 A3019 RMK A01 T01291120  RH  016%=      5-min Rain = 0
KSB1 132138Z 26008KT 13/M12 A3019 RMK A01 T01321117  RH  016%=      5-min Rain = 0
KSB1 132139Z 28005KT 13/M12 A3019 RMK A01 T01331123  RH  016%=      5-min Rain = 0
KSB1 132140Z 28010KT 13/M12 A3018 RMK A01 T01311124  RH  016%=      5-min Rain = 0
KSB1 132141Z 26008KT 13/M12 A3018 RMK A01 T01311123  RH  016%=      5-min Rain = 0
KSB1 132142Z 27010KT 13/M12 A3019 RMK A01 T01301123  RH  016%=      5-min Rain = 0
KSB1 132143Z 28012KT 13/M12 A3018 RMK A01 T01291122  RH  016%=      5-min Rain = 0
KSB1 132144Z 28013KT 13/M12 A3018 RMK A01 T01281120  RH  016%=      5-min Rain = 0
KSB1 132145Z 28010KT 13/M12 A3018 RMK A01 T01281119  RH  017%=      5-min Rain = 0
KSB1 132146Z 26011KT 13/M12 A3018 RMK A01 T01301117  RH  017%=      5-min Rain = 0
KSB1 132147Z 26011KT 13/M12 A3018 RMK A01 T01301119  RH  017%=      5-min Rain = 0
KSB1 132148Z 27010KT 13/M12 A3018 RMK A01 T01301117  RH  017%=      5-min Rain = 0
KSB1 132149Z 28014KT 13/M12 A3018 RMK A01 T01301117  RH  017%=      5-min Rain = 0
KSB1 132150Z 26011KT 13/M12 A3018 RMK A01 T01281118  RH  017%=      5-min Rain = 0
KSB1 132151Z 26014KT 13/M12 A3018 RMK A01 T01281116  RH  017%=      5-min Rain = 0
KSB1 132152Z 26013KT 13/M12 A3018 RMK A01 T01281115  RH  017%=      5-min Rain = 0
KSB1 132153Z 26012KT 13/M12 A3018 RMK A01 T01271115  RH  017%=      5-min Rain = 0
KSB1 132154Z 25010G15KT 13/M12 A3018 RMK A01 T01271117  RH  017%=      5-min Rain = 0
KSB1 132155Z 26015KT 13/M12 A3018 RMK A01 T01271119  RH  017%=      5-min Rain = 0
KSB1 132156Z 27013KT 13/M12 A3018 RMK A01 T01271119  RH  017%=      5-min Rain = 0
KSB1 132157Z 27014KT 13/M12 A3018 RMK A01 T01271119  RH  017%=      5-min Rain = 0
KSB1 132158Z 26011KT 13/M12 A3018 RMK A01 T01271117  RH  017%=      5-min Rain = 0
KSB1 132159Z 26011KT 13/M12 A3018 RMK A01 T01281116  RH  017%=      5-min Rain = 0
KSB1 132200Z 25009KT 13/M12 A3017 RMK A01 T01291117  RH  017%=      5-min Rain = 0
KSB1 132201Z 24011KT 13/M12 A3017 RMK A01 T01311117  RH  017%=      5-min Rain = 0
KSB1 132202Z 24010KT 13/M12 A3017 RMK A01 T01311119  RH  016%=      5-min Rain = 0
KSB1 132203Z 26012G18KT 13/M12 A3017 RMK A01 T01321119  RH  016%=      5-min Rain = 0
KSB1 132204Z 26013KT 13/M12 A3017 RMK A01 T01321123  RH  016%=      5-min Rain = 0
KSB1 132205Z 25010KT 13/M12 A3017 RMK A01 T01301122  RH  016%=      5-min Rain = 0
KSB1 132206Z 25010KT 13/M12 A3017 RMK A01 T01331119  RH  016%=      5-min Rain = 0
KSB1 132207Z 26013KT 13/M12 A3017 RMK A01 T01331121  RH  016%=      5-min Rain = 0
KSB1 132208Z 25013KT 13/M12 A3016 RMK A01 T01331122  RH  016%=      5-min Rain = 0
KSB1 132209Z 26014KT 13/M12 A3016 RMK A01 T01321123  RH  016%=      5-min Rain = 0
KSB1 132210Z 25012KT 13/M12 A3016 RMK A01 T01311124  RH  016%=      5-min Rain = 0
KSB1 132211Z 27016KT 13/M12 A3016 RMK A01 T01311124  RH  016%=      5-min Rain = 0
KSB1 132212Z 26014KT 13/M13 A3016 RMK A01 T01291125  RH  016%=      5-min Rain = 0
KSB1 132213Z 27015KT 13/M12 A3016 RMK A01 T01301124  RH  016%=      5-min Rain = 0
KSB1 132214Z 26015KT 13/M12 A3016 RMK A01 T01301123  RH  016%=      5-min Rain = 0
KSB1 132215Z 25016KT 13/M12 A3016 RMK A01 T01301123  RH  016%=      5-min Rain = 0
KSB1 132216Z 25015KT 13/M12 A3015 RMK A01 T01301123  RH  016%=      5-min Rain = 0
KSB1 132217Z 25014G20KT 13/M13 A3015 RMK A01 T01311125  RH  016%=      5-min Rain = 0
KSB1 132218Z 26015G21KT 13/M13 A3015 RMK A01 T01331126  RH  015%=      5-min Rain = 0
KSB1 132219Z 26017KT 13/M13 A3015 RMK A01 T01331129  RH  015%=      5-min Rain = 0
KSB1 132220Z 26019KT 13/M13 A3015 RMK A01 T01331128  RH  015%=      5-min Rain = 0
KSB1 132221Z 26020G26KT 13/M13 A3015 RMK A01 T01311129  RH  015%=      5-min Rain = 0
KSB1 132222Z 26018G23KT 13/M13 A3015 RMK A01 T01301128  RH  015%=      5-min Rain = 0
KSB1 132223Z 26017KT 13/M13 A3015 RMK A01 T01291126  RH  016%=      5-min Rain = 0
KSB1 132224Z 26016KT 13/M13 A3015 RMK A01 T01291126  RH  016%=      5-min Rain = 0
KSB1 132225Z 26017G24KT 13/M13 A3015 RMK A01 T01291125  RH  016%=      5-min Rain = 0
KSB1 132226Z 26018KT 13/M13 A3015 RMK A01 T01301129  RH  015%=      5-min Rain = 0
KSB1 132227Z 26014KT 13/M13 A3015 RMK A01 T01301130  RH  015%=      5-min Rain = 0
KSB1 132228Z 26015G20KT 13/M13 A3015 RMK A01 T01311130  RH  015%=      5-min Rain = 0
KSB1 132229Z 26016KT 13/M13 A3015 RMK A01 T01311130  RH  015%=      5-min Rain = 0
KSB1 132230Z 26016G21KT 13/M13 A3015 RMK A01 T01321128  RH  015%=      5-min Rain = 0
KSB1 132231Z 26018KT 13/M13 A3015 RMK A01 T01321130  RH  015%=      5-min Rain = 0
KSB1 132232Z 26016KT 13/M13 A3015 RMK A01 T01301130  RH  015%=      5-min Rain = 0
KSB1 132233Z 26017KT 13/M13 A3015 RMK A01 T01301129  RH  015%=      5-min Rain = 0
KSB1 132234Z 26017KT 13/M13 A3015 RMK A01 T01291129  RH  015%=      5-min Rain = 0
KSB1 132235Z 25017KT 13/M13 A3015 RMK A01 T01291129  RH  015%=      5-min Rain = 0
KSB1 132236Z 26016G22KT 13/M13 A3015 RMK A01 T01291130  RH  015%=      5-min Rain = 0
KSB1 132237Z 26017G23KT 13/M13 A3015 RMK A01 T01291133  RH  015%=      5-min Rain = 0
KSB1 132238Z 26019KT 13/M13 A3015 RMK A01 T01281133  RH  015%=      5-min Rain = 0
KSB1 132239Z 26013KT 13/M13 A3015 RMK A01 T01281131  RH  015%=      5-min Rain = 0
KSB1 132240Z 26014KT 13/M13 A3015 RMK A01 T01301128  RH  015%=      5-min Rain = 0
KSB1 132241Z 26013KT 13/M13 A3015 RMK A01 T01311127  RH  015%=      5-min Rain = 0
KSB1 132242Z 26013KT 13/M13 A3015 RMK A01 T01311126  RH  015%=      5-min Rain = 0
KSB1 132243Z 27014KT 13/M13 A3015 RMK A01 T01311127  RH  015%=      5-min Rain = 0
KSB1 132244Z 27015KT 13/M13 A3015 RMK A01 T01311129  RH  015%=      5-min Rain = 0
KSB1 132245Z 26013KT 13/M13 A3015 RMK A01 T01301130  RH  015%=      5-min Rain = 0
KSB1 132246Z 26014G19KT 13/M13 A3015 RMK A01 T01301129  RH  015%=      5-min Rain = 0
KSB1 132247Z 26018KT 13/M13 A3015 RMK A01 T01301132  RH  015%=      5-min Rain = 0
KSB1 132248Z 26014KT 13/M14 A3015 RMK A01 T01291135  RH  015%=      5-min Rain = 0
KSB1 132249Z 26016KT 13/M13 A3015 RMK A01 T01291134  RH  015%=      5-min Rain = 0
KSB1 132250Z 26013KT 13/M13 A3015 RMK A01 T01281133  RH  015%=      5-min Rain = 0
KSB1 132251Z 26016KT 13/M13 A3015 RMK A01 T01281132  RH  015%=      5-min Rain = 0
KSB1 132252Z 25013KT 13/M13 A3015 RMK A01 T01271132  RH  015%=      5-min Rain = 0
KSB1 132253Z 26015KT 13/M13 A3015 RMK A01 T01271132  RH  015%=      5-min Rain = 0
KSB1 132254Z 25015KT 13/M13 A3015 RMK A01 T01281131  RH  015%=      5-min Rain = 0
KSB1 132255Z 26015KT 13/M13 A3015 RMK A01 T01281131  RH  015%=      5-min Rain = 0
KSB1 132256Z 26013KT 13/M13 A3015 RMK A01 T01271131  RH  015%=      5-min Rain = 0
KSB1 132257Z 25013G18KT 13/M13 A3015 RMK A01 T01281130  RH  015%=      5-min Rain = 0
KSB1 132258Z 24015KT 13/M13 A3015 RMK A01 T01281131  RH  015%=      5-min Rain = 0
KSB1 132259Z 25016KT 13/M13 A3014 RMK A01 T01271133  RH  015%=      5-min Rain = 0
KSB1 132300Z 25012KT 13/M13 A3015 RMK A01 T01271133  RH  015%=      5-min Rain = 0
KSB1 132301Z 26014KT 13/M13 A3014 RMK A01 T01281131  RH  015%=      5-min Rain = 0
KSB1 132302Z 25012KT 13/M13 A3015 RMK A01 T01281131  RH  015%=      5-min Rain = 0
KSB1 132303Z 25013KT 13/M13 A3014 RMK A01 T01281132  RH  015%=      5-min Rain = 0
KSB1 132304Z 26015KT 13/M13 A3014 RMK A01 T01281133  RH  015%=      5-min Rain = 0
KSB1 132305Z 26012KT 13/M14 A3014 RMK A01 T01281135  RH  015%=      5-min Rain = 0
KSB1 132306Z 26011KT 13/M13 A3015 RMK A01 T01281134  RH  015%=      5-min Rain = 0
KSB1 132307Z 26011KT 13/M13 A3015 RMK A01 T01281133  RH  015%=      5-min Rain = 0
KSB1 132308Z 25010KT 13/M13 A3015 RMK A01 T01291130  RH  015%=      5-min Rain = 0
KSB1 132309Z 25010KT 13/M13 A3014 RMK A01 T01291133  RH  015%=      5-min Rain = 0
KSB1 132310Z 25009KT 13/M13 A3015 RMK A01 T01291134  RH  015%=      5-min Rain = 0
KSB1 132311Z 25008KT 13/M13 A3015 RMK A01 T01301134  RH  015%=      5-min Rain = 0
KSB1 132312Z 25010KT 13/M13 A3015 RMK A01 T01301133  RH  015%=      5-min Rain = 0
KSB1 132313Z 26010KT 13/M13 A3014 RMK A01 T01301134  RH  015%=      5-min Rain = 0
KSB1 132314Z 24010KT 13/M14 A3014 RMK A01 T01291135  RH  015%=      5-min Rain = 0
KSB1 132315Z 25014KT 13/M14 A3014 RMK A01 T01291135  RH  015%=      5-min Rain = 0
KSB1 132316Z 25015KT 13/M14 A3014 RMK A01 T01291138  RH  014%=      5-min Rain = 0
KSB1 132317Z 24014KT 13/M14 A3014 RMK A01 T01271139  RH  014%=      5-min Rain = 0
KSB1 132318Z 25011KT 13/M14 A3014 RMK A01 T01261139  RH  014%=      5-min Rain = 0
KSB1 132319Z 25012KT 13/M14 A3014 RMK A01 T01261137  RH  015%=      5-min Rain = 0
KSB1 132320Z 25012KT 13/M14 A3014 RMK A01 T01271138  RH  014%=      5-min Rain = 0
KSB1 132321Z 25012KT 13/M14 A3014 RMK A01 T01271138  RH  014%=      5-min Rain = 0
KSB1 132322Z 25010KT 13/M14 A3014 RMK A01 T01271138  RH  014%=      5-min Rain = 0
KSB1 132323Z 25013KT 13/M14 A3014 RMK A01 T01261138  RH  014%=      5-min Rain = 0
KSB1 132324Z 25011KT 13/M14 A3014 RMK A01 T01271140  RH  014%=      5-min Rain = 0
KSB1 132325Z 26011KT 13/M14 A3014 RMK A01 T01271141  RH  014%=      5-min Rain = 0
KSB1 132326Z 25010KT 13/M14 A3014 RMK A01 T01271140  RH  014%=      5-min Rain = 0
KSB1 132327Z 26010KT 13/M14 A3014 RMK A01 T01281140  RH  014%=      5-min Rain = 0
KSB1 132328Z 25010KT 13/M14 A3014 RMK A01 T01281140  RH  014%=      5-min Rain = 0
KSB1 132329Z 25010KT 13/M14 A3014 RMK A01 T01271140  RH  014%=      5-min Rain = 0
KSB1 132330Z 25009KT 13/M14 A3014 RMK A01 T01271140  RH  014%=      5-min Rain = 0
KSB1 132331Z 25009KT 13/M14 A3014 RMK A01 T01271140  RH  014%=      5-min Rain = 0
KSB1 132332Z 26008KT 13/M14 A3014 RMK A01 T01271140  RH  014%=      5-min Rain = 0
KSB1 132333Z 25009KT 13/M14 A3014 RMK A01 T01271141  RH  014%=      5-min Rain = 0
KSB1 132334Z 26008KT 13/M14 A3014 RMK A01 T01271141  RH  014%=      5-min Rain = 0
KSB1 132335Z 26010KT 13/M14 A3014 RMK A01 T01271141  RH  014%=      5-min Rain = 0
KSB1 132336Z 26009KT 13/M14 A3014 RMK A01 T01271142  RH  014%=      5-min Rain = 0
KSB1 132337Z 25009KT 13/M14 A3014 RMK A01 T01261142  RH  014%=      5-min Rain = 0
KSB1 132338Z 26009KT 13/M14 A3014 RMK A01 T01261141  RH  014%=      5-min Rain = 0
KSB1 132339Z 27009KT 13/M14 A3014 RMK A01 T01261141  RH  014%=      5-min Rain = 0
KSB1 132340Z 27008KT 13/M14 A3014 RMK A01 T01251141  RH  014%=      5-min Rain = 0
KSB1 132341Z 27009KT 13/M14 A3014 RMK A01 T01251140  RH  014%=      5-min Rain = 0
KSB1 132342Z 27008KT 13/M14 A3014 RMK A01 T01251140  RH  014%=      5-min Rain = 0
KSB1 132343Z 27006KT 13/M14 A3014 RMK A01 T01251141  RH  014%=      5-min Rain = 0
KSB1 132344Z 27007KT 13/M14 A3014 RMK A01 T01251141  RH  014%=      5-min Rain = 0
KSB1 132345Z 27007KT 13/M14 A3014 RMK A01 T01251141  RH  014%=      5-min Rain = 0
KSB1 132346Z 27007KT 13/M14 A3014 RMK A01 T01251141  RH  014%=      5-min Rain = 0
KSB1 132347Z 27006KT 13/M14 A3014 RMK A01 T01251142  RH  014%=      5-min Rain = 0
KSB1 132348Z 27005KT 13/M14 A3014 RMK A01 T01251141  RH  014%=      5-min Rain = 0
KSB1 132349Z 27008KT 12/M14 A3014 RMK A01 T01241140  RH  014%=      5-min Rain = 0
KSB1 132350Z 27007KT 12/M14 A3014 RMK A01 T01231140  RH  015%=      5-min Rain = 0
KSB1 132351Z 27010KT 12/M14 A3014 RMK A01 T01221138  RH  015%=      5-min Rain = 0
KSB1 132352Z 27009KT 12/M14 A3014 RMK A01 T01211138  RH  015%=      5-min Rain = 0
KSB1 132353Z 28009KT 12/M14 A3014 RMK A01 T01211137  RH  015%=      5-min Rain = 0
KSB1 132354Z 27008KT 12/M14 A3014 RMK A01 T01211137  RH  015%=      5-min Rain = 0
KSB1 132355Z 27009KT 12/M14 A3014 RMK A01 T01201137  RH  015%=      5-min Rain = 0
KSB1 132356Z 27008KT 12/M14 A3014 RMK A01 T01191138  RH  015%=      5-min Rain = 0
KSB1 132357Z 28008KT 12/M14 A3014 RMK A01 T01191138  RH  015%=      5-min Rain = 0
KSB1 132358Z 27007KT 12/M14 A3014 RMK A01 T01181139  RH  015%=      5-min Rain = 0
KSB1 132359Z 28008KT 12/M14 A3014 RMK A01 T01181140  RH  015%=      5-min Rain = 0
KSB1 140000Z 28009KT 12/M14 A3014 RMK A01 T01181138  RH  015%=      5-min Rain = 0
KSB1 140001Z 28009KT 12/M14 A3014 RMK A01 T01181137  RH  015%=      5-min Rain = 0
KSB1 140002Z 27008KT 12/M14 A3014 RMK A01 T01181138  RH  015%=      5-min Rain = 0
KSB1 140003Z 28009KT 12/M14 A3014 RMK A01 T01171139  RH  015%=      5-min Rain = 0
KSB1 140004Z 28007KT 12/M14 A3014 RMK A01 T01161139  RH  015%=      5-min Rain = 0
KSB1 140005Z 28009KT 12/M14 A3014 RMK A01 T01161138  RH  016%=      5-min Rain = 0
KSB1 140006Z 28008KT 12/M14 A3014 RMK A01 T01151139  RH  015%=      5-min Rain = 0
KSB1 140007Z 27008KT 12/M14 A3014 RMK A01 T01151140  RH  015%=      5-min Rain = 0
KSB1 140008Z 27008KT 12/M14 A3014 RMK A01 T01151141  RH  015%=      5-min Rain = 0
KSB1 140009Z 27007KT 11/M14 A3014 RMK A01 T01141142  RH  015%=      5-min Rain = 0
KSB1 140010Z 27008KT 11/M14 A3014 RMK A01 T01141142  RH  015%=      5-min Rain = 0
KSB1 140011Z 28008KT 11/M14 A3014 RMK A01 T01121142  RH  015%=      5-min Rain = 0
KSB1 140012Z 27010KT 11/M14 A3014 RMK A01 T01111143  RH  015%=      5-min Rain = 0
KSB1 140013Z 27010KT 11/M15 A3014 RMK A01 T01101145  RH  015%=      5-min Rain = 0
KSB1 140014Z 27009KT 11/M15 A3014 RMK A01 T01101145  RH  015%=      5-min Rain = 0
KSB1 140015Z 27009KT 11/M14 A3014 RMK A01 T01111144  RH  015%=      5-min Rain = 0
KSB1 140016Z 28008KT 11/M14 A3014 RMK A01 T01101144  RH  015%=      5-min Rain = 0
KSB1 140017Z 28009KT 11/M14 A3014 RMK A01 T01081144  RH  016%=      5-min Rain = 0
KSB1 140018Z 28009KT 11/M15 A3014 RMK A01 T01071145  RH  016%=      5-min Rain = 0
KSB1 140019Z 28009KT 11/M15 A3014 RMK A01 T01061145  RH  016%=      5-min Rain = 0
KSB1 140020Z 28009KT 11/M15 A3014 RMK A01 T01051145  RH  016%=      5-min Rain = 0
KSB1 140021Z 28009KT 10/M15 A3014 RMK A01 T01041145  RH  016%=      5-min Rain = 0
KSB1 140022Z 28010KT 10/M15 A3014 RMK A01 T01041146  RH  016%=      5-min Rain = 0
KSB1 140023Z 27010KT 10/M15 A3014 RMK A01 T01031146  RH  016%=      5-min Rain = 0
KSB1 140024Z 27008KT 10/M15 A3014 RMK A01 T01021146  RH  016%=      5-min Rain = 0
KSB1 140025Z 28009KT 10/M15 A3014 RMK A01 T01011146  RH  016%=      5-min Rain = 0
KSB1 140026Z 28009KT 10/M15 A3014 RMK A01 T01011146  RH  016%=      5-min Rain = 0
KSB1 140027Z 28010KT 10/M15 A3014 RMK A01 T01001146  RH  016%=      5-min Rain = 0
KSB1 140028Z 28009KT 10/M15 A3014 RMK A01 T01011146  RH  016%=      5-min Rain = 0
KSB1 140029Z 27008KT 10/M15 A3014 RMK A01 T01011146  RH  016%=      5-min Rain = 0
KSB1 140030Z 28007KT 10/M15 A3014 RMK A01 T01001145  RH  016%=      5-min Rain = 0
KSB1 140031Z 28009KT 10/M15 A3014 RMK A01 T00991145  RH  016%=      5-min Rain = 0
KSB1 140032Z 28009KT 10/M15 A3014 RMK A01 T00981145  RH  016%=      5-min Rain = 0
KSB1 140033Z 28009KT 10/M15 A3014 RMK A01 T00981145  RH  016%=      5-min Rain = 0
KSB1 140034Z 28008KT 10/M15 A3014 RMK A01 T00991145  RH  016%=      5-min Rain = 0
KSB1 140035Z 28008KT 10/M15 A3014 RMK A01 T00981145  RH  017%=      5-min Rain = 0
KSB1 140036Z 28008KT 10/M15 A3014 RMK A01 T00961145  RH  017%=      5-min Rain = 0
KSB1 140037Z 28008KT 10/M15 A3014 RMK A01 T00951145  RH  017%=      5-min Rain = 0
KSB1 140038Z 29007KT 09/M15 A3014 RMK A01 T00941145  RH  017%=      5-min Rain = 0
KSB1 140039Z 29005KT 09/M15 A3014 RMK A01 T00941145  RH  017%=      5-min Rain = 0
KSB1 140040Z 29005KT 09/M15 A3014 RMK A01 T00921145  RH  017%=      5-min Rain = 0
KSB1 140041Z 30005KT 09/M15 A3014 RMK A01 T00911145  RH  017%=      5-min Rain = 0
KSB1 140042Z 30005KT 09/M15 A3014 RMK A01 T00911145  RH  017%=      5-min Rain = 0
KSB1 140043Z 30005KT 09/M15 A3014 RMK A01 T00901145  RH  017%=      5-min Rain = 0
KSB1 140044Z 30006KT 09/M15 A3014 RMK A01 T00891145  RH  017%=      5-min Rain = 0
KSB1 140045Z 29006KT 09/M15 A3014 RMK A01 T00891145  RH  018%=      5-min Rain = 0
KSB1 140046Z 30006KT 09/M14 A3014 RMK A01 T00911144  RH  017%=      5-min Rain = 0
KSB1 140047Z 30007KT 09/M14 A3014 RMK A01 T00931143  RH  017%=      5-min Rain = 0
KSB1 140048Z 30008KT 10/M14 A3014 RMK A01 T00951142  RH  017%=      5-min Rain = 0
KSB1 140049Z 30007KT 10/M14 A3014 RMK A01 T00971141  RH  017%=      5-min Rain = 0
KSB1 140050Z 29007KT 10/M14 A3014 RMK A01 T00981141  RH  017%=      5-min Rain = 0
KSB1 140051Z 29007KT 10/M14 A3014 RMK A01 T00981141  RH  017%=      5-min Rain = 0
KSB1 140052Z 29008KT 10/M14 A3014 RMK A01 T00981141  RH  017%=      5-min Rain = 0
KSB1 140053Z 29009KT 10/M14 A3014 RMK A01 T00981142  RH  017%=      5-min Rain = 0
KSB1 140054Z 29008KT 10/M14 A3014 RMK A01 T00981143  RH  017%=      5-min Rain = 0
KSB1 140055Z 29008KT 10/M14 A3013 RMK A01 T00981144  RH  017%=      5-min Rain = 0
KSB1 140056Z 29007KT 10/M15 A3013 RMK A01 T00981145  RH  016%=      5-min Rain = 0
KSB1 140057Z 28007KT 10/M15 A3013 RMK A01 T00991146  RH  016%=      5-min Rain = 0
KSB1 140058Z 28007KT 10/M15 A3013 RMK A01 T00991146  RH  016%=      5-min Rain = 0
KSB1 140059Z 28007KT 10/M15 A3013 RMK A01 T00971146  RH  016%=      5-min Rain = 0
KSB1 140100Z 28007KT 10/M15 A3013 RMK A01 T00951147  RH  017%=      5-min Rain = 0
KSB1 140101Z 28006KT 09/M15 A3013 RMK A01 T00931146  RH  017%=      5-min Rain = 0
KSB1 140102Z 29005KT 09/M15 A3013 RMK A01 T00911147  RH  017%=      5-min Rain = 0
KSB1 140103Z 28007KT 09/M15 A3014 RMK A01 T00901146  RH  017%=      5-min Rain = 0
KSB1 140104Z 28006KT 09/M15 A3014 RMK A01 T00891145  RH  018%=      5-min Rain = 0
KSB1 140105Z 27005KT 09/M15 A3014 RMK A01 T00881145  RH  018%=      5-min Rain = 0
KSB1 140106Z 27004KT 09/M15 A3014 RMK A01 T00881145  RH  018%=      5-min Rain = 0
KSB1 140107Z 28005KT 09/M15 A3014 RMK A01 T00871145  RH  018%=      5-min Rain = 0
KSB1 140108Z 28004KT 09/M15 A3014 RMK A01 T00861145  RH  018%=      5-min Rain = 0
KSB1 140109Z 29005KT 08/M15 A3013 RMK A01 T00841146  RH  018%=      5-min Rain = 0
KSB1 140110Z 30007KT 08/M15 A3013 RMK A01 T00831146  RH  018%=      5-min Rain = 0
KSB1 140111Z 30007KT 08/M15 A3013 RMK A01 T00831145  RH  018%=      5-min Rain = 0
KSB1 140112Z 30007KT 09/M15 A3013 RMK A01 T00881145  RH  018%=      5-min Rain = 0
KSB1 140113Z 30007KT 09/M14 A3013 RMK A01 T00921144  RH  017%=      5-min Rain = 0
KSB1 140114Z 30009KT 09/M14 A3013 RMK A01 T00941144  RH  017%=      5-min Rain = 0
KSB1 140115Z 30009KT 10/M14 A3013 RMK A01 T00951143  RH  017%=      5-min Rain = 0
KSB1 140116Z 31008KT 10/M14 A3014 RMK A01 T00951144  RH  017%=      5-min Rain = 0
KSB1 140117Z 30009KT 10/M14 A3014 RMK A01 T00951144  RH  017%=      5-min Rain = 0
KSB1 140118Z 31009KT 10/M14 A3014 RMK A01 T00951144  RH  017%=      5-min Rain = 0
KSB1 140119Z 30009KT 10/M14 A3014 RMK A01 T00961143  RH  017%=      5-min Rain = 0
KSB1 140120Z 29010KT 10/M14 A3014 RMK A01 T00951142  RH  017%=      5-min Rain = 0
KSB1 140121Z 30009KT 09/M14 A3014 RMK A01 T00941142  RH  017%=      5-min Rain = 0
KSB1 140122Z 30009KT 09/M14 A3014 RMK A01 T00931142  RH  017%=      5-min Rain = 0
KSB1 140123Z 29010KT 09/M14 A3014 RMK A01 T00931143  RH  017%=      5-min Rain = 0
KSB1 140124Z 29009KT 09/M14 A3014 RMK A01 T00931143  RH  017%=      5-min Rain = 0
KSB1 140125Z 29009KT 09/M14 A3014 RMK A01 T00921143  RH  017%=      5-min Rain = 0
KSB1 140126Z 30009KT 09/M14 A3014 RMK A01 T00921143  RH  017%=      5-min Rain = 0
KSB1 140127Z 29009KT 09/M14 A3014 RMK A01 T00921144  RH  017%=      5-min Rain = 0
KSB1 140128Z 30009KT 09/M15 A3014 RMK A01 T00921145  RH  017%=      5-min Rain = 0
KSB1 140129Z 30008KT 09/M15 A3014 RMK A01 T00931145  RH  017%=      5-min Rain = 0
KSB1 140130Z 30007KT 09/M15 A3014 RMK A01 T00931145  RH  017%=      5-min Rain = 0
KSB1 140131Z 30009KT 09/M15 A3014 RMK A01 T00921146  RH  017%=      5-min Rain = 0
KSB1 140132Z 30008KT 09/M15 A3014 RMK A01 T00921146  RH  017%=      5-min Rain = 0
KSB1 140133Z 30009KT 09/M15 A3014 RMK A01 T00921145  RH  017%=      5-min Rain = 0
KSB1 140134Z 30010KT 09/M15 A3014 RMK A01 T00921145  RH  017%=      5-min Rain = 0
KSB1 140135Z 31009KT 09/M15 A3014 RMK A01 T00921146  RH  017%=      5-min Rain = 0
KSB1 140136Z 31008KT 09/M15 A3014 RMK A01 T00921146  RH  017%=      5-min Rain = 0
KSB1 140137Z 30010KT 09/M15 A3014 RMK A01 T00921146  RH  017%=      5-min Rain = 0
KSB1 140138Z 31009KT 09/M15 A3014 RMK A01 T00931147  RH  017%=      5-min Rain = 0
KSB1 140139Z 31009KT 09/M15 A3014 RMK A01 T00931147  RH  017%=      5-min Rain = 0
KSB1 140140Z 30009KT 09/M15 A3014 RMK A01 T00931147  RH  017%=      5-min Rain = 0
KSB1 140141Z 30009KT 09/M15 A3014 RMK A01 T00931146  RH  017%=      5-min Rain = 0
KSB1 140142Z 30008KT 09/M15 A3014 RMK A01 T00931147  RH  017%=      5-min Rain = 0
KSB1 140143Z 30008KT 09/M15 A3014 RMK A01 T00921147  RH  017%=      5-min Rain = 0
KSB1 140144Z 30010KT 09/M15 A3014 RMK A01 T00921148  RH  017%=      5-min Rain = 0
KSB1 140145Z 30008KT 09/M15 A3014 RMK A01 T00921149  RH  017%=      5-min Rain = 0
KSB1 140146Z 30008KT 09/M15 A3014 RMK A01 T00921150  RH  016%=      5-min Rain = 0
KSB1 140147Z 30010KT 09/M15 A3014 RMK A01 T00911151  RH  016%=      5-min Rain = 0
KSB1 140148Z 30010KT 09/M15 A3014 RMK A01 T00911152  RH  016%=      5-min Rain = 0
KSB1 140149Z 30012KT 09/M15 A3014 RMK A01 T00921151  RH  016%=      5-min Rain = 0
KSB1 140150Z 30012KT 09/M15 A3014 RMK A01 T00921148  RH  017%=      5-min Rain = 0
KSB1 140151Z 30012KT 09/M15 A3014 RMK A01 T00911148  RH  017%=      5-min Rain = 0
KSB1 140152Z 30012KT 09/M15 A3014 RMK A01 T00911146  RH  017%=      5-min Rain = 0
KSB1 140153Z 30011KT 09/M15 A3014 RMK A01 T00921146  RH  017%=      5-min Rain = 0
KSB1 140154Z 29009KT 09/M15 A3014 RMK A01 T00911145  RH  017%=      5-min Rain = 0
KSB1 140155Z 29011KT 09/M14 A3014 RMK A01 T00901144  RH  017%=      5-min Rain = 0
KSB1 140156Z 29010KT 09/M14 A3014 RMK A01 T00891144  RH  018%=      5-min Rain = 0
KSB1 140157Z 29011KT 09/M14 A3014 RMK A01 T00881143  RH  018%=      5-min Rain = 0
KSB1 140158Z 29011KT 09/M14 A3014 RMK A01 T00871142  RH  018%=      5-min Rain = 0
KSB1 140159Z 28010KT 09/M14 A3014 RMK A01 T00851142  RH  018%=      5-min Rain = 0
KSB1 140200Z 28010KT 08/M14 A3014 RMK A01 T00821142  RH  019%=      5-min Rain = 0
KSB1 140201Z 27009KT 08/M14 A3014 RMK A01 T00791143  RH  019%=      5-min Rain = 0
KSB1 140202Z 27009KT 08/M14 A3014 RMK A01 T00761142  RH  020%=      5-min Rain = 0
KSB1 140203Z 27009KT 07/M14 A3015 RMK A01 T00741142  RH  020%=      5-min Rain = 0
KSB1 140204Z 27008KT 07/M14 A3014 RMK A01 T00741141  RH  020%=      5-min Rain = 0
KSB1 140205Z 27008KT 07/M14 A3015 RMK A01 T00741141  RH  020%=      5-min Rain = 0
KSB1 140206Z 27008KT 07/M14 A3015 RMK A01 T00731141  RH  020%=      5-min Rain = 0
KSB1 140207Z 27008KT 07/M14 A3015 RMK A01 T00731141  RH  020%=      5-min Rain = 0
KSB1 140208Z 27007KT 07/M14 A3015 RMK A01 T00721141  RH  020%=      5-min Rain = 0
KSB1 140209Z 27007KT 07/M14 A3015 RMK A01 T00711141  RH  020%=      5-min Rain = 0
KSB1 140210Z 28005KT 07/M14 A3015 RMK A01 T00711141  RH  020%=      5-min Rain = 0
KSB1 140211Z 28004KT 07/M14 A3015 RMK A01 T00701141  RH  021%=      5-min Rain = 0
KSB1 140212Z 29004KT 07/M14 A3015 RMK A01 T00701141  RH  021%=      5-min Rain = 0
KSB1 140213Z 29006KT 07/M14 A3015 RMK A01 T00701141  RH  021%=      5-min Rain = 0
KSB1 140214Z 29007KT 07/M14 A3015 RMK A01 T00701142  RH  020%=      5-min Rain = 0
KSB1 140215Z 30009KT 07/M14 A3015 RMK A01 T00721141  RH  020%=      5-min Rain = 0
KSB1 140216Z 29007KT 08/M14 A3015 RMK A01 T00751141  RH  020%=      5-min Rain = 0
KSB1 140217Z 29005KT 08/M14 A3015 RMK A01 T00761142  RH  020%=      5-min Rain = 0
KSB1 140218Z 29005KT 08/M14 A3015 RMK A01 T00771142  RH  019%=      5-min Rain = 0
KSB1 140219Z 30003KT 08/M14 A3015 RMK A01 T00771143  RH  019%=      5-min Rain = 0
KSB1 140220Z 33004KT 08/M14 A3016 RMK A01 T00781143  RH  019%=      5-min Rain = 0
KSB1 140221Z 02005KT 08/M15 A3016 RMK A01 T00771145  RH  019%=      5-min Rain = 0
KSB1 140222Z 04007KT 08/M15 A3016 RMK A01 T00771145  RH  019%=      5-min Rain = 0
KSB1 140223Z 03007KT 07/M14 A3016 RMK A01 T00741144  RH  020%=      5-min Rain = 0
KSB1 140224Z 01008KT 07/M14 A3016 RMK A01 T00731143  RH  020%=      5-min Rain = 0
KSB1 140225Z 33005KT 07/M14 A3016 RMK A01 T00741144  RH  020%=      5-min Rain = 0
KSB1 140226Z 33005KT 08/M14 A3015 RMK A01 T00781144  RH  019%=      5-min Rain = 0
KSB1 140227Z 29005KT 08/M14 A3015 RMK A01 T00801144  RH  019%=      5-min Rain = 0
KSB1 140228Z 26005KT 08/M15 A3015 RMK A01 T00821145  RH  018%=      5-min Rain = 0
KSB1 140229Z 25005KT 08/M15 A3015 RMK A01 T00791145  RH  019%=      5-min Rain = 0
KSB1 140230Z 27005KT 08/M15 A3015 RMK A01 T00761146  RH  019%=      5-min Rain = 0
KSB1 140231Z 27006KT 08/M15 A3015 RMK A01 T00771145  RH  019%=      5-min Rain = 0
KSB1 140232Z 28005KT 08/M15 A3015 RMK A01 T00781145  RH  019%=      5-min Rain = 0
KSB1 140233Z 28005KT 08/M15 A3015 RMK A01 T00791145  RH  019%=      5-min Rain = 0
KSB1 140234Z 28006KT 08/M15 A3015 RMK A01 T00781145  RH  019%=      5-min Rain = 0
KSB1 140235Z 27007KT 08/M15 A3015 RMK A01 T00761145  RH  019%=      5-min Rain = 0
KSB1 140236Z 28007KT 07/M15 A3015 RMK A01 T00741145  RH  019%=      5-min Rain = 0
KSB1 140237Z 27007KT 07/M14 A3015 RMK A01 T00731144  RH  020%=      5-min Rain = 0
KSB1 140238Z 27007KT 07/M14 A3015 RMK A01 T00721144  RH  020%=      5-min Rain = 0
KSB1 140239Z 27007KT 07/M14 A3015 RMK A01 T00721143  RH  020%=      5-min Rain = 0
KSB1 140240Z 27007KT 07/M14 A3015 RMK A01 T00701144  RH  020%=      5-min Rain = 0
KSB1 140241Z 27007KT 07/M14 A3015 RMK A01 T00681144  RH  020%=      5-min Rain = 0
KSB1 140242Z 27007KT 07/M14 A3015 RMK A01 T00651144  RH  021%=      5-min Rain = 0
KSB1 140243Z 28007KT 06/M14 A3015 RMK A01 T00641144  RH  021%=      5-min Rain = 0
KSB1 140244Z 27007KT 06/M14 A3015 RMK A01 T00631143  RH  021%=      5-min Rain = 0
KSB1 140245Z 28007KT 06/M14 A3015 RMK A01 T00621143  RH  021%=      5-min Rain = 0
KSB1 140246Z 27006KT 06/M14 A3015 RMK A01 T00601143  RH  022%=      5-min Rain = 0
KSB1 140247Z 28007KT 06/M14 A3015 RMK A01 T00591143  RH  022%=      5-min Rain = 0
KSB1 140248Z 27007KT 06/M14 A3015 RMK A01 T00571143  RH  022%=      5-min Rain = 0
KSB1 140249Z 28007KT 06/M14 A3015 RMK A01 T00571143  RH  022%=      5-min Rain = 0
KSB1 140250Z 28008KT 06/M14 A3015 RMK A01 T00561142  RH  022%=      5-min Rain = 0
KSB1 140251Z 28008KT 06/M14 A3015 RMK A01 T00581141  RH  022%=      5-min Rain = 0
KSB1 140252Z 28008KT 06/M14 A3015 RMK A01 T00591141  RH  022%=      5-min Rain = 0
KSB1 140253Z 28008KT 06/M14 A3015 RMK A01 T00601141  RH  022%=      5-min Rain = 0
KSB1 140254Z 28008KT 06/M14 A3015 RMK A01 T00601142  RH  022%=      5-min Rain = 0
KSB1 140255Z 27008KT 06/M14 A3015 RMK A01 T00621141  RH  022%=      5-min Rain = 0
KSB1 140256Z 28008KT 06/M14 A3015 RMK A01 T00641141  RH  022%=      5-min Rain = 0
KSB1 140257Z 27006KT 06/M14 A3015 RMK A01 T00641141  RH  021%=      5-min Rain = 0
KSB1 140258Z 27006KT 06/M14 A3015 RMK A01 T00621143  RH  021%=      5-min Rain = 0
KSB1 140259Z 27006KT 06/M14 A3015 RMK A01 T00611142  RH  022%=      5-min Rain = 0
KSB1 140300Z 28006KT 06/M14 A3015 RMK A01 T00591143  RH  022%=      5-min Rain = 0
KSB1 140301Z 28007KT 06/M14 A3015 RMK A01 T00571143  RH  022%=      5-min Rain = 0
KSB1 140302Z 28008KT 06/M14 A3015 RMK A01 T00551142  RH  023%=      5-min Rain = 0
KSB1 140303Z 29009KT 06/M14 A3015 RMK A01 T00561141  RH  023%=      5-min Rain = 0
KSB1 140304Z 29009KT 06/M14 A3014 RMK A01 T00551142  RH  023%=      5-min Rain = 0
KSB1 140305Z 28010KT 05/M14 A3014 RMK A01 T00541141  RH  023%=      5-min Rain = 0
KSB1 140306Z 28010KT 06/M14 A3014 RMK A01 T00551141  RH  023%=      5-min Rain = 0
KSB1 140307Z 29010KT 06/M14 A3014 RMK A01 T00571140  RH  023%=      5-min Rain = 0
KSB1 140308Z 29009KT 06/M14 A3014 RMK A01 T00581140  RH  022%=      5-min Rain = 0
KSB1 140309Z 28010KT 06/M14 A3014 RMK A01 T00591140  RH  022%=      5-min Rain = 0
KSB1 140310Z 29012KT 06/M14 A3014 RMK A01 T00621140  RH  022%=      5-min Rain = 0
KSB1 140311Z 29009KT 06/M14 A3015 RMK A01 T00641140  RH  022%=      5-min Rain = 0
KSB1 140312Z 29009KT 07/M14 A3014 RMK A01 T00651141  RH  021%=      5-min Rain = 0
KSB1 140313Z 30009KT 07/M14 A3015 RMK A01 T00651141  RH  021%=      5-min Rain = 0
KSB1 140314Z 30010KT 07/M14 A3015 RMK A01 T00651141  RH  021%=      5-min Rain = 0
KSB1 140315Z 29008KT 07/M14 A3015 RMK A01 T00671141  RH  021%=      5-min Rain = 0
KSB1 140316Z 29009KT 07/M14 A3015 RMK A01 T00681142  RH  021%=      5-min Rain = 0
KSB1 140317Z 30010KT 07/M14 A3015 RMK A01 T00691142  RH  020%=      5-min Rain = 0
KSB1 140318Z 30008KT 07/M14 A3015 RMK A01 T00711142  RH  020%=      5-min Rain = 0
KSB1 140319Z 29008KT 07/M14 A3015 RMK A01 T00711143  RH  020%=      5-min Rain = 0
KSB1 140320Z 30007KT 07/M14 A3015 RMK A01 T00711143  RH  020%=      5-min Rain = 0
KSB1 140321Z 29007KT 07/M14 A3015 RMK A01 T00721143  RH  020%=      5-min Rain = 0
KSB1 140322Z 30007KT 07/M14 A3015 RMK A01 T00711143  RH  020%=      5-min Rain = 0
KSB1 140323Z 29006KT 07/M14 A3015 RMK A01 T00711144  RH  020%=      5-min Rain = 0
KSB1 140324Z 29005KT 07/M14 A3015 RMK A01 T00711144  RH  020%=      5-min Rain = 0
KSB1 140325Z 29005KT 07/M14 A3015 RMK A01 T00711144  RH  020%=      5-min Rain = 0
KSB1 140326Z 29007KT 07/M14 A3015 RMK A01 T00691144  RH  020%=      5-min Rain = 0
KSB1 140327Z 30005KT 07/M14 A3014 RMK A01 T00691144  RH  020%=      5-min Rain = 0
KSB1 140328Z 29006KT 07/M15 A3014 RMK A01 T00691145  RH  020%=      5-min Rain = 0
KSB1 140329Z 29005KT 07/M15 A3015 RMK A01 T00701145  RH  020%=      5-min Rain = 0
KSB1 140330Z 28004KT 07/M15 A3014 RMK A01 T00701145  RH  020%=      5-min Rain = 0
KSB1 140331Z 28007KT 07/M15 A3014 RMK A01 T00691145  RH  020%=      5-min Rain = 0
KSB1 140332Z 28006KT 07/M15 A3014 RMK A01 T00681146  RH  020%=      5-min Rain = 0
KSB1 140333Z 28005KT 07/M15 A3015 RMK A01 T00671146  RH  020%=      5-min Rain = 0
KSB1 140334Z 27005KT 07/M15 A3015 RMK A01 T00671146  RH  020%=      5-min Rain = 0
KSB1 140335Z 27004KT 07/M15 A3015 RMK A01 T00671146  RH  020%=      5-min Rain = 0
KSB1 140336Z 28005KT 07/M15 A3015 RMK A01 T00661146  RH  020%=      5-min Rain = 0
KSB1 140337Z 28005KT 07/M15 A3015 RMK A01 T00651146  RH  020%=      5-min Rain = 0
KSB1 140338Z 27004KT 07/M15 A3014 RMK A01 T00651146  RH  020%=      5-min Rain = 0
KSB1 140339Z 27005KT 07/M15 A3014 RMK A01 T00651146  RH  020%=      5-min Rain = 0
KSB1 140340Z 26004KT 07/M15 A3015 RMK A01 T00651147  RH  020%=      5-min Rain = 0
KSB1 140341Z 26005KT 07/M15 A3014 RMK A01 T00651147  RH  020%=      5-min Rain = 0
KSB1 140342Z 26006KT 07/M15 A3014 RMK A01 T00651148  RH  020%=      5-min Rain = 0
KSB1 140343Z 27006KT 07/M15 A3014 RMK A01 T00651148  RH  020%=      5-min Rain = 0
KSB1 140344Z 28004KT 07/M15 A3014 RMK A01 T00661148  RH  020%=      5-min Rain = 0
KSB1 140345Z 28004KT 07/M15 A3014 RMK A01 T00651148  RH  020%=      5-min Rain = 0
KSB1 140346Z 28004KT 06/M15 A3015 RMK A01 T00631148  RH  020%=      5-min Rain = 0
KSB1 140347Z 28004KT 06/M15 A3015 RMK A01 T00621148  RH  021%=      5-min Rain = 0
KSB1 140348Z 27004KT 06/M15 A3015 RMK A01 T00611148  RH  021%=      5-min Rain = 0
KSB1 140349Z 27004KT 06/M15 A3015 RMK A01 T00601148  RH  021%=      5-min Rain = 0
KSB1 140350Z 27005KT 06/M15 A3015 RMK A01 T00581148  RH  021%=      5-min Rain = 0
KSB1 140351Z 27005KT 06/M15 A3014 RMK A01 T00571149  RH  021%=      5-min Rain = 0
KSB1 140352Z 28005KT 06/M15 A3015 RMK A01 T00571149  RH  021%=      5-min Rain = 0
KSB1 140353Z 27005KT 06/M15 A3014 RMK A01 T00561149  RH  021%=      5-min Rain = 0
KSB1 140354Z 27004KT 06/M15 A3015 RMK A01 T00561150  RH  021%=      5-min Rain = 0
KSB1 140355Z 28005KT 06/M15 A3015 RMK A01 T00561150  RH  021%=      5-min Rain = 0
KSB1 140356Z 28007KT 06/M15 A3015 RMK A01 T00561151  RH  021%=      5-min Rain = 0
KSB1 140357Z 28007KT 06/M15 A3015 RMK A01 T00581151  RH  021%=      5-min Rain = 0
KSB1 140358Z 28008KT 06/M15 A3015 RMK A01 T00601152  RH  020%=      5-min Rain = 0
KSB1 140359Z 28007KT 06/M15 A3015 RMK A01 T00621152  RH  020%=      5-min Rain = 0
KSB1 140400Z 28008KT 06/M15 A3015 RMK A01 T00641154  RH  019%=      5-min Rain = 0
KSB1 140401Z 27008G13KT 07/M15 A3015 RMK A01 T00651154  RH  019%=      5-min Rain = 0
KSB1 140402Z 28009KT 07/M15 A3015 RMK A01 T00661154  RH  019%=      5-min Rain = 0
KSB1 140403Z 29008KT 07/M16 A3015 RMK A01 T00681155  RH  019%=      5-min Rain = 0
KSB1 140404Z 28009KT 07/M16 A3015 RMK A01 T00701156  RH  018%=      5-min Rain = 0
KSB1 140405Z 28011KT 07/M16 A3014 RMK A01 T00721156  RH  018%=      5-min Rain = 0
KSB1 140406Z 28009KT 08/M16 A3014 RMK A01 T00751157  RH  018%=      5-min Rain = 0
KSB1 140407Z 28008KT 08/M16 A3014 RMK A01 T00751157  RH  017%=      5-min Rain = 0
KSB1 140408Z 28008KT 08/M16 A3014 RMK A01 T00751157  RH  017%=      5-min Rain = 0
KSB1 140409Z 28010KT 08/M16 A3014 RMK A01 T00751158  RH  017%=      5-min Rain = 0
KSB1 140410Z 29011KT 08/M16 A3014 RMK A01 T00771159  RH  017%=      5-min Rain = 0
KSB1 140411Z 28011KT 08/M16 A3014 RMK A01 T00811160  RH  016%=      5-min Rain = 0
KSB1 140412Z 29010KT 08/M16 A3014 RMK A01 T00831160  RH  016%=      5-min Rain = 0
KSB1 140413Z 29012KT 08/M16 A3014 RMK A01 T00831161  RH  016%=      5-min Rain = 0
KSB1 140414Z 29009KT 08/M16 A3014 RMK A01 T00841161  RH  016%=      5-min Rain = 0
KSB1 140415Z 29009KT 08/M16 A3014 RMK A01 T00841161  RH  016%=      5-min Rain = 0
KSB1 140416Z 29010KT 08/M16 A3014 RMK A01 T00821160  RH  016%=      5-min Rain = 0
KSB1 140417Z 29011KT 08/M16 A3014 RMK A01 T00811161  RH  016%=      5-min Rain = 0
KSB1 140418Z 28009KT 08/M16 A3014 RMK A01 T00821161  RH  016%=      5-min Rain = 0
KSB1 140419Z 28008KT 08/M16 A3014 RMK A01 T00811161  RH  016%=      5-min Rain = 0
KSB1 140420Z 29009KT 08/M16 A3014 RMK A01 T00801161  RH  016%=      5-min Rain = 0
KSB1 140421Z 28007KT 08/M16 A3014 RMK A01 T00791160  RH  016%=      5-min Rain = 0
KSB1 140422Z 27007KT 08/M16 A3014 RMK A01 T00781160  RH  017%=      5-min Rain = 0
KSB1 140423Z 27007KT 08/M16 A3014 RMK A01 T00771160  RH  017%=      5-min Rain = 0
KSB1 140424Z 26006KT 08/M16 A3014 RMK A01 T00751161  RH  017%=      5-min Rain = 0
KSB1 140425Z 26006KT 07/M16 A3014 RMK A01 T00721161  RH  017%=      5-min Rain = 0
KSB1 140426Z 24004KT 07/M16 A3014 RMK A01 T00711160  RH  017%=      5-min Rain = 0
KSB1 140427Z 24003KT 07/M16 A3014 RMK A01 T00701161  RH  017%=      5-min Rain = 0
KSB1 140428Z 25003KT 07/M16 A3014 RMK A01 T00691162  RH  017%=      5-min Rain = 0
KSB1 140429Z 26003KT 07/M16 A3014 RMK A01 T00691162  RH  017%=      5-min Rain = 0
KSB1 140430Z 26005KT 07/M16 A3014 RMK A01 T00691162  RH  017%=      5-min Rain = 0
KSB1 140431Z 26006KT 07/M16 A3014 RMK A01 T00711161  RH  017%=      5-min Rain = 0
KSB1 140432Z 24003KT 07/M16 A3014 RMK A01 T00741161  RH  017%=      5-min Rain = 0
KSB1 140433Z 26004KT 07/M16 A3014 RMK A01 T00741161  RH  017%=      5-min Rain = 0
KSB1 140434Z 27006KT 07/M16 A3014 RMK A01 T00731162  RH  017%=      5-min Rain = 0
KSB1 140435Z 26005KT 07/M16 A3014 RMK A01 T00731162  RH  017%=      5-min Rain = 0
KSB1 140436Z 27008KT 07/M16 A3014 RMK A01 T00741162  RH  017%=      5-min Rain = 0
KSB1 140437Z 29007KT 08/M16 A3014 RMK A01 T00771162  RH  016%=      5-min Rain = 0
KSB1 140438Z 28005KT 08/M16 A3014 RMK A01 T00791163  RH  016%=      5-min Rain = 0
KSB1 140439Z 30005KT 08/M16 A3014 RMK A01 T00791164  RH  016%=      5-min Rain = 0
KSB1 140440Z 31006KT 08/M17 A3014 RMK A01 T00811165  RH  016%=      5-min Rain = 0
KSB1 140441Z 32008KT 09/M17 A3014 RMK A01 T00861167  RH  015%=      5-min Rain = 0
KSB1 140442Z 31007KT 09/M17 A3014 RMK A01 T00931168  RH  014%=      5-min Rain = 0
KSB1 140443Z 29005KT 10/M17 A3014 RMK A01 T00971168  RH  014%=      5-min Rain = 0
KSB1 140444Z 30007KT 10/M17 A3014 RMK A01 T00981170  RH  013%=      5-min Rain = 0
KSB1 140445Z 29006G11KT 10/M17 A3014 RMK A01 T00981169  RH  013%=      5-min Rain = 0
KSB1 140446Z 30004KT 10/M17 A3014 RMK A01 T00971169  RH  014%=      5-min Rain = 0
KSB1 140447Z 29009KT 10/M17 A3014 RMK A01 T00961169  RH  014%=      5-min Rain = 0
KSB1 140448Z 29010KT 10/M17 A3014 RMK A01 T00961170  RH  014%=      5-min Rain = 0
KSB1 140449Z 29008G14KT 10/M17 A3014 RMK A01 T00981169  RH  014%=      5-min Rain = 0
KSB1 140450Z 29009KT 10/M17 A3014 RMK A01 T00981169  RH  013%=      5-min Rain = 0
KSB1 140451Z 30008KT 10/M17 A3014 RMK A01 T00991168  RH  014%=      5-min Rain = 0
KSB1 140452Z 29007KT 10/M17 A3014 RMK A01 T00981169  RH  013%=      5-min Rain = 0
KSB1 140453Z 28009KT 10/M17 A3014 RMK A01 T00981169  RH  014%=      5-min Rain = 0
KSB1 140454Z 28006KT 10/M17 A3014 RMK A01 T00961169  RH  014%=      5-min Rain = 0
KSB1 140455Z 29008KT 09/M17 A3014 RMK A01 T00941168  RH  014%=      5-min Rain = 0
KSB1 140456Z 28006KT 09/M17 A3014 RMK A01 T00941168  RH  014%=      5-min Rain = 0
KSB1 140457Z 28006KT 09/M17 A3014 RMK A01 T00931168  RH  014%=      5-min Rain = 0
KSB1 140458Z 27005KT 09/M17 A3014 RMK A01 T00921168  RH  014%=      5-min Rain = 0
KSB1 140459Z 28006KT 09/M17 A3014 RMK A01 T00911168  RH  014%=      5-min Rain = 0
KSB1 140500Z 28007KT 09/M17 A3014 RMK A01 T00901167  RH  015%=      5-min Rain = 0
KSB1 140501Z 28006KT 09/M17 A3014 RMK A01 T00891167  RH  015%=      5-min Rain = 0
KSB1 140502Z 28005KT 09/M17 A3014 RMK A01 T00901167  RH  015%=      5-min Rain = 0
KSB1 140503Z 27005KT 09/M17 A3014 RMK A01 T00911167  RH  014%=      5-min Rain = 0
KSB1 140504Z 27005KT 09/M17 A3014 RMK A01 T00911167  RH  014%=      5-min Rain = 0
KSB1 140505Z 27004KT 09/M17 A3014 RMK A01 T00901167  RH  014%=      5-min Rain = 0
KSB1 140506Z 29004KT 09/M17 A3014 RMK A01 T00901167  RH  015%=      5-min Rain = 0
KSB1 140507Z 29005KT 09/M17 A3014 RMK A01 T00891167  RH  015%=      5-min Rain = 0
KSB1 140508Z 25003KT 09/M17 A3014 RMK A01 T00891167  RH  015%=      5-min Rain = 0
KSB1 140509Z 26003KT 09/M17 A3014 RMK A01 T00891167  RH  015%=      5-min Rain = 0
KSB1 140510Z 20002KT 09/M17 A3014 RMK A01 T00881167  RH  015%=      5-min Rain = 0
KSB1 140511Z 15001KT 09/M17 A3014 RMK A01 T00881167  RH  015%=      5-min Rain = 0
KSB1 140512Z 16002KT 09/M17 A3014 RMK A01 T00871168  RH  015%=      5-min Rain = 0
KSB1 140513Z 22002KT 09/M17 A3014 RMK A01 T00851168  RH  015%=      5-min Rain = 0
KSB1 140514Z 23004KT 09/M17 A3014 RMK A01 T00851168  RH  015%=      5-min Rain = 0
KSB1 140515Z 22003KT 09/M17 A3014 RMK A01 T00851166  RH  015%=      5-min Rain = 0
KSB1 140516Z 24003KT 09/M17 A3014 RMK A01 T00851167  RH  015%=      5-min Rain = 0
KSB1 140517Z 24002KT 09/M17 A3014 RMK A01 T00861166  RH  015%=      5-min Rain = 0
KSB1 140518Z 24001KT 09/M17 A3013 RMK A01 T00861167  RH  015%=      5-min Rain = 0
KSB1 140519Z 22003KT 09/M17 A3013 RMK A01 T00871166  RH  015%=      5-min Rain = 0
KSB1 140520Z 24004KT 09/M17 A3013 RMK A01 T00861166  RH  015%=      5-min Rain = 0
KSB1 140521Z 26005KT 09/M17 A3013 RMK A01 T00861166  RH  015%=      5-min Rain = 0
KSB1 140522Z 27005KT 09/M17 A3013 RMK A01 T00861166  RH  015%=      5-min Rain = 0
KSB1 140523Z 26005KT 09/M17 A3013 RMK A01 T00881166  RH  015%=      5-min Rain = 0
KSB1 140524Z 24004KT 09/M17 A3013 RMK A01 T00861166  RH  015%=      5-min Rain = 0
KSB1 140525Z 25005KT 09/M17 A3013 RMK A01 T00851166  RH  015%=      5-min Rain = 0
KSB1 140526Z 24005KT 09/M17 A3013 RMK A01 T00871165  RH  015%=      5-min Rain = 0
KSB1 140527Z 22004KT 09/M17 A3013 RMK A01 T00871165  RH  015%=      5-min Rain = 0
KSB1 140528Z 19005KT 09/M17 A3013 RMK A01 T00861166  RH  015%=      5-min Rain = 0
KSB1 140529Z 21004KT 09/M17 A3013 RMK A01 T00861165  RH  015%=      5-min Rain = 0
KSB1 140530Z 21006KT 09/M17 A3013 RMK A01 T00851165  RH  015%=      5-min Rain = 0
KSB1 140531Z 20008KT 08/M17 A3013 RMK A01 T00841165  RH  015%=      5-min Rain = 0
KSB1 140532Z 22011KT 08/M16 A3013 RMK A01 T00831164  RH  016%=      5-min Rain = 0
KSB1 140533Z 24010KT 09/M16 A3013 RMK A01 T00871162  RH  015%=      5-min Rain = 0
KSB1 140534Z 25007KT 09/M16 A3013 RMK A01 T00911162  RH  015%=      5-min Rain = 0
KSB1 140535Z 24006KT 09/M16 A3013 RMK A01 T00901163  RH  015%=      5-min Rain = 0
KSB1 140536Z 24004KT 09/M16 A3013 RMK A01 T00891164  RH  015%=      5-min Rain = 0
KSB1 140537Z 23004KT 09/M16 A3013 RMK A01 T00891164  RH  015%=      5-min Rain = 0
KSB1 140538Z 22004KT 09/M16 A3012 RMK A01 T00891164  RH  015%=      5-min Rain = 0
KSB1 140539Z 24005KT 09/M16 A3012 RMK A01 T00901164  RH  015%=      5-min Rain = 0
KSB1 140540Z 24006KT 09/M17 A3013 RMK A01 T00911165  RH  015%=      5-min Rain = 0
KSB1 140541Z 18006KT 09/M17 A3012 RMK A01 T00931166  RH  014%=      5-min Rain = 0
KSB1 140542Z 20005KT 10/M17 A3012 RMK A01 T00951168  RH  014%=      5-min Rain = 0
KSB1 140543Z 20005KT 10/M17 A3012 RMK A01 T00961168  RH  014%=      5-min Rain = 0
KSB1 140544Z 23005KT 10/M17 A3012 RMK A01 T00951169  RH  014%=      5-min Rain = 0
KSB1 140545Z 29005KT 09/M17 A3013 RMK A01 T00921170  RH  014%=      5-min Rain = 0
KSB1 140546Z 25003KT 09/M17 A3012 RMK A01 T00921169  RH  014%=      5-min Rain = 0
KSB1 140547Z 18006KT 09/M17 A3012 RMK A01 T00931169  RH  014%=      5-min Rain = 0
KSB1 140548Z 22003KT 09/M17 A3012 RMK A01 T00941168  RH  014%=      5-min Rain = 0
KSB1 140549Z 20006KT 09/M17 A3012 RMK A01 T00941168  RH  014%=      5-min Rain = 0
KSB1 140550Z 22007KT 09/M17 A3012 RMK A01 T00921169  RH  014%=      5-min Rain = 0
KSB1 140551Z 19008KT 09/M17 A3012 RMK A01 T00891169  RH  014%=      5-min Rain = 0
KSB1 140552Z 20007KT 09/M17 A3012 RMK A01 T00881169  RH  015%=      5-min Rain = 0
KSB1 140553Z 20011KT 09/M17 A3012 RMK A01 T00871168  RH  015%=      5-min Rain = 0
KSB1 140554Z 20007KT 09/M17 A3012 RMK A01 T00881167  RH  015%=      5-min Rain = 0
KSB1 140555Z 21010KT 09/M17 A3012 RMK A01 T00901167  RH  015%=      5-min Rain = 0
KSB1 140556Z 20011KT 09/M17 A3012 RMK A01 T00881167  RH  015%=      5-min Rain = 0
KSB1 140557Z 19012KT 09/M17 A3012 RMK A01 T00851167  RH  015%=      5-min Rain = 0
KSB1 140558Z 20013KT 08/M17 A3012 RMK A01 T00841166  RH  015%=      5-min Rain = 0
KSB1 140559Z 19015KT 09/M17 A3011 RMK A01 T00851165  RH  015%=      5-min Rain = 0

Page generated in 0.1969 seconds.